Home > Products > Valid Products > TAF

000
FTUS41 KCTP 211740
TAFUNV
TAF
KUNV 211740Z 2118/2218 VRB03KT 4SM -SHRA SCT020 OVC030
     FM212000 31007KT 6SM -SHRA BR SCT015 OVC025
      TEMPO 2121/2124 3SM -SHRA OVC012
     FM220100 33007KT 5SM -SHRA BR OVC010
     FM220600 34008KT 2SM -DZ BR OVC005=



000
FTUS41 KCTP 211740
TAFJST
TAF
KJST 211740Z 2118/2218 30010KT 5SM -SHRA BR BKN013 OVC022
     FM211900 32012KT 6SM BR BKN025 OVC040
     FM212100 33010KT 6SM -SHRA OVC010
     FM220300 34008KT 4SM -SHRA BR BKN004 OVC009
     FM220900 34008KT 2SM -DZ BR OVC004=



000
FTUS41 KCTP 211740
TAFIPT
TAF
KIPT 211740Z 2118/2218 00000KT P6SM VCSH SCT025 OVC035
     FM212000 VRB03KT 6SM -SHRA BR SCT015 OVC025
      TEMPO 2121/2124 3SM -SHRA OVC012
     FM220100 33007KT 5SM -SHRA BR OVC010
     FM220600 34008KT 2SM -DZ BR OVC005=



000
FTUS41 KCTP 211740
TAFMDT
TAF
KMDT 211740Z 2118/2218 27005KT 3SM BR OVC050
     FM211800 27007KT P6SM VCTS BKN040CB
     FM212300 27007KT 5SM -SHRA BR OVC020
     FM220900 32008G15KT P6SM VCSH OVC035=



000
FTUS41 KCTP 211740
TAFAOO
TAF
KAOO 211740Z 2118/2218 30006KT 6SM -SHRA VCTS SCT025 BKN040CB
     FM212000 30007KT 6SM -SHRA BR BKN020 OVC030
      TEMPO 2121/2124 3SM -SHRA OVC012
     FM220100 33007KT 5SM -SHRA BR OVC012
     FM220600 34008KT 3SM -DZ BR OVC007=



000
FTUS41 KCTP 211740
TAFBFD
TAF
KBFD 211740Z 2118/2218 33007KT 3SM -SHRA OVC020
     FM212200 35007KT 6SM -SHRA BR OVC012
     FM220500 34010KT 2SM -SHRA BR BKN004 OVC009
     FM221000 35010KT 4SM -DZ BR OVC004=



000
FTUS41 KCTP 211634 AAD
TAFJST
TAF AMD
KJST 211634Z 2117/2212 27010KT 6SM BR BKN013 OVC022
     FM211700 32012KT 6SM -SHRA BR VCTS BKN025 OVC040CB
     FM212100 33010KT P6SM -SHRA OVC015
     FM220500 35008KT 4SM -SHRA BR BKN004 OVC009=



000
FTUS41 KCTP 211634 AAD
TAFJST
TAF AMD
KJST 211634Z 2117/2212 27010KT 6SM BR BKN013 OVC022
     FM211700 32012KT 6SM -SHRA BR VCTS BKN025 OVC040CB
     FM212100 33010KT P6SM -SHRA OVC015
     FM220500 35008KT 4SM -SHRA BR BKN004 OVC009=



000
FTUS41 KCTP 211556 AAA
TAFBFD
TAF AMD
KBFD 211556Z 2116/2212 VRB03KT 4SM -SHRA BR SCT012 OVC030
     FM211700 33007KT P6SM VCSH BKN025
     FM220500 34008KT 4SM -SHRA BR BKN004 OVC009=



000
FTUS41 KCTP 211556 AAA
TAFBFD
TAF AMD
KBFD 211556Z 2116/2212 VRB03KT 4SM -SHRA BR SCT012 OVC030
     FM211700 33007KT P6SM VCSH BKN025
     FM220500 34008KT 4SM -SHRA BR BKN004 OVC009=



000
FTUS41 KCTP 211556 AAA
TAFBFD
TAF AMD
KBFD 211556Z 2116/2212 VRB03KT 4SM -SHRA BR SCT012 OVC030
     FM211700 33007KT P6SM VCSH BKN025
     FM220500 34008KT 4SM -SHRA BR BKN004 OVC009=



000
FTUS41 KCTP 211556 AAA
TAFBFD
TAF AMD
KBFD 211556Z 2116/2212 VRB03KT 4SM -SHRA BR SCT012 OVC030
     FM211700 33007KT P6SM VCSH BKN025
     FM220500 34008KT 4SM -SHRA BR BKN004 OVC009=



000
FTUS41 KCTP 211355 AAC
TAFJST
TAF AMD
KJST 211355Z 2114/2212 27007KT 1SM BR OVC002
     FM211430 25007KT 1 1/2SM -SHRA BR OVC004
     FM211530 27007KT 2SM BR OVC007
     FM211700 34008KT P6SM VCSH OVC015
     FM220500 35008KT 4SM -SHRA BR BKN004 OVC009=



000
FTUS41 KCTP 211355 AAC
TAFJST
TAF AMD
KJST 211355Z 2114/2212 27007KT 1SM BR OVC002
     FM211430 25007KT 1 1/2SM -SHRA BR OVC004
     FM211530 27007KT 2SM BR OVC007
     FM211700 34008KT P6SM VCSH OVC015
     FM220500 35008KT 4SM -SHRA BR BKN004 OVC009=



000
FTUS41 KCTP 211328 AAB
TAFMDT
TAF AMD
KMDT 211328Z 2113/2212 VRB05KT 2SM BR BKN050
     FM211400 28005KT 3SM BR OVC050
     FM211800 30007KT P6SM VCSH BKN040
     FM220900 32008G15KT P6SM VCSH OVC035=



000
FTUS41 KCTP 211328 AAB
TAFMDT
TAF AMD
KMDT 211328Z 2113/2212 VRB05KT 2SM BR BKN050
     FM211400 28005KT 3SM BR OVC050
     FM211800 30007KT P6SM VCSH BKN040
     FM220900 32008G15KT P6SM VCSH OVC035=



000
FTUS41 KCTP 211327 AAB
TAFJST
TAF AMD
KJST 211327Z 2113/2212 27007KT 1/4SM FG BKN002 OVC015
     FM211400 25007KT 3/4SM -SHRA BR OVC004
     FM211530 27007KT 2SM BR OVC007
     FM211700 34008KT P6SM VCSH OVC015
     FM220500 35008KT 4SM -SHRA BR BKN004 OVC009=



000
FTUS41 KCTP 211327 AAB
TAFJST
TAF AMD
KJST 211327Z 2113/2212 27007KT 1/4SM FG BKN002 OVC015
     FM211400 25007KT 3/4SM -SHRA BR OVC004
     FM211530 27007KT 2SM BR OVC007
     FM211700 34008KT P6SM VCSH OVC015
     FM220500 35008KT 4SM -SHRA BR BKN004 OVC009=



000
FTUS41 KCTP 211311 AAA
TAFMDT
TAF AMD
KMDT 211311Z 2113/2212 VRB05KT 3SM BR BKN050
     FM211400 28005KT 6SM HZ OVC050
     FM211800 30007KT P6SM VCSH BKN040
     FM220900 32008G15KT P6SM VCSH OVC035=



000
FTUS41 KCTP 211311 AAA
TAFMDT
TAF AMD
KMDT 211311Z 2113/2212 VRB05KT 3SM BR BKN050
     FM211400 28005KT 6SM HZ OVC050
     FM211800 30007KT P6SM VCSH BKN040
     FM220900 32008G15KT P6SM VCSH OVC035=



000
FTUS41 KCTP 211309 AAA
TAFUNV
TAF AMD
KUNV 211309Z 2113/2212 00000KT P6SM VCSH SCT020 OVC040
     FM211430 21003KT 3SM -SHRA BKN020 OVC035
     FM211700 24005KT 6SM -SHRA OVC035
     FM220200 33007KT 5SM -SHRA BR OVC030=



000
FTUS41 KCTP 211309 AAA
TAFUNV
TAF AMD
KUNV 211309Z 2113/2212 00000KT P6SM VCSH SCT020 OVC040
     FM211430 21003KT 3SM -SHRA BKN020 OVC035
     FM211700 24005KT 6SM -SHRA OVC035
     FM220200 33007KT 5SM -SHRA BR OVC030=



000
FTUS41 KCTP 211306 AAA
TAFAOO
TAF AMD
KAOO 211306Z 2113/2212 25006KT P6SM BKN030 OVC040
     FM211400 25007KT P6SM BKN025 OVC035
     FM211700 30007KT 6SM -SHRA BKN035
     FM220100 33007KT 5SM -SHRA BR OVC030=



000
FTUS41 KCTP 211306 AAA
TAFAOO
TAF AMD
KAOO 211306Z 2113/2212 25006KT P6SM BKN030 OVC040
     FM211400 25007KT P6SM BKN025 OVC035
     FM211700 30007KT 6SM -SHRA BKN035
     FM220100 33007KT 5SM -SHRA BR OVC030=



000
FTUS41 KCTP 211305 AAA
TAFJST
TAF AMD
KJST 211305Z 2113/2212 27007KT 1/2SM FG BKN002 OVC015
     FM211400 33007KT 2SM -SHRA BR OVC004
     FM211700 34008KT P6SM VCSH OVC015
     FM220500 35008KT 4SM -SHRA BR BKN004 OVC009=



000
FTUS41 KCTP 211305 AAA
TAFJST
TAF AMD
KJST 211305Z 2113/2212 27007KT 1/2SM FG BKN002 OVC015
     FM211400 33007KT 2SM -SHRA BR OVC004
     FM211700 34008KT P6SM VCSH OVC015
     FM220500 35008KT 4SM -SHRA BR BKN004 OVC009=



000
FTUS41 KCTP 211136
TAFIPT
TAF
KIPT 211136Z 2112/2212 VRB05KT P6SM VCSH SCT025 OVC040
     FM211800 29007KT P6SM VCSH BKN035
     FM220400 31007KT 5SM -SHRA BR OVC030=



000
FTUS41 KCTP 211136
TAFBFD
TAF
KBFD 211136Z 2112/2212 22005KT P6SM -SHRA OVC002
     FM211700 33007KT P6SM VCSH OVC015
     FM220500 34008KT 4SM -SHRA BR BKN004 OVC009=



000
FTUS41 KCTP 211136
TAFUNV
TAF
KUNV 211136Z 2112/2212 23006KT P6SM VCSH BKN025 OVC070
     FM211600 30007KT P6SM VCSH BKN035
     FM220200 33007KT 5SM -SHRA BR OVC030=



000
FTUS41 KCTP 211136
TAFMDT
TAF
KMDT 211136Z 2112/2212 VRB05KT 2SM BR BKN035
     FM211500 28005KT P6SM BKN050
     FM211900 30007KT P6SM VCSH BKN040
     FM220900 32008G15KT P6SM VCSH OVC035=



000
FTUS41 KCTP 211136
TAFBFD
TAF
KBFD 211136Z 2112/2212 22005KT P6SM -SHRA OVC002
     FM211700 33007KT P6SM VCSH OVC015
     FM220500 34008KT 4SM -SHRA BR BKN004 OVC009=



000
FTUS41 KCTP 211136
TAFMDT
TAF
KMDT 211136Z 2112/2212 VRB05KT 2SM BR BKN035
     FM211500 28005KT P6SM BKN050
     FM211900 30007KT P6SM VCSH BKN040
     FM220900 32008G15KT P6SM VCSH OVC035=



000
FTUS41 KCTP 211136
TAFIPT
TAF
KIPT 211136Z 2112/2212 VRB05KT P6SM VCSH SCT025 OVC040
     FM211800 29007KT P6SM VCSH BKN035
     FM220400 31007KT 5SM -SHRA BR OVC030=



000
FTUS41 KCTP 211136
TAFUNV
TAF
KUNV 211136Z 2112/2212 23006KT P6SM VCSH BKN025 OVC070
     FM211600 30007KT P6SM VCSH BKN035
     FM220200 33007KT 5SM -SHRA BR OVC030=



000
FTUS41 KCTP 211136
TAFBFD
TAF
KBFD 211136Z 2112/2212 22005KT P6SM -SHRA OVC002
     FM211700 33007KT P6SM VCSH OVC015
     FM220500 34008KT 4SM -SHRA BR BKN004 OVC009=



000
FTUS41 KCTP 211136
TAFAOO
TAF
KAOO 211136Z 2112/2212 25006KT P6SM BKN018 OVC030
     FM211700 30007KT P6SM VCSH BKN035
     FM220100 33007KT 5SM -SHRA BR OVC030=



000
FTUS41 KCTP 211136
TAFJST
TAF
KJST 211136Z 2112/2212 27007KT 1/4SM -SHRA FG BKN002 OVC015
     FM211400 33007KT 2SM -SHRA BR OVC004
     FM211700 34008KT P6SM VCSH OVC015
     FM220500 35008KT 4SM -SHRA BR BKN004 OVC009=



000
FTUS41 KCTP 211136
TAFMDT
TAF
KMDT 211136Z 2112/2212 VRB05KT 2SM BR BKN035
     FM211500 28005KT P6SM BKN050
     FM211900 30007KT P6SM VCSH BKN040
     FM220900 32008G15KT P6SM VCSH OVC035=



000
FTUS41 KCTP 211136
TAFIPT
TAF
KIPT 211136Z 2112/2212 VRB05KT P6SM VCSH SCT025 OVC040
     FM211800 29007KT P6SM VCSH BKN035
     FM220400 31007KT 5SM -SHRA BR OVC030=



000
FTUS41 KCTP 211136
TAFUNV
TAF
KUNV 211136Z 2112/2212 23006KT P6SM VCSH BKN025 OVC070
     FM211600 30007KT P6SM VCSH BKN035
     FM220200 33007KT 5SM -SHRA BR OVC030=



000
FTUS41 KCTP 211136
TAFJST
TAF
KJST 211136Z 2112/2212 27007KT 1/4SM -SHRA FG BKN002 OVC015
     FM211400 33007KT 2SM -SHRA BR OVC004
     FM211700 34008KT P6SM VCSH OVC015
     FM220500 35008KT 4SM -SHRA BR BKN004 OVC009=



000
FTUS41 KCTP 211136
TAFAOO
TAF
KAOO 211136Z 2112/2212 25006KT P6SM BKN018 OVC030
     FM211700 30007KT P6SM VCSH BKN035
     FM220100 33007KT 5SM -SHRA BR OVC030=



000
FTUS41 KCTP 211136
TAFJST
TAF
KJST 211136Z 2112/2212 27007KT 1/4SM -SHRA FG BKN002 OVC015
     FM211400 33007KT 2SM -SHRA BR OVC004
     FM211700 34008KT P6SM VCSH OVC015
     FM220500 35008KT 4SM -SHRA BR BKN004 OVC009=



000
FTUS41 KCTP 211136
TAFBFD
TAF
KBFD 211136Z 2112/2212 22005KT P6SM -SHRA OVC002
     FM211700 33007KT P6SM VCSH OVC015
     FM220500 34008KT 4SM -SHRA BR BKN004 OVC009=



000
FTUS41 KCTP 211136
TAFAOO
TAF
KAOO 211136Z 2112/2212 25006KT P6SM BKN018 OVC030
     FM211700 30007KT P6SM VCSH BKN035
     FM220100 33007KT 5SM -SHRA BR OVC030=



000
FTUS41 KCTP 211136
TAFIPT
TAF
KIPT 211136Z 2112/2212 VRB05KT P6SM VCSH SCT025 OVC040
     FM211800 29007KT P6SM VCSH BKN035
     FM220400 31007KT 5SM -SHRA BR OVC030=



000
FTUS41 KCTP 211136
TAFAOO
TAF
KAOO 211136Z 2112/2212 25006KT P6SM BKN018 OVC030
     FM211700 30007KT P6SM VCSH BKN035
     FM220100 33007KT 5SM -SHRA BR OVC030=



000
FTUS41 KCTP 211136
TAFMDT
TAF
KMDT 211136Z 2112/2212 VRB05KT 2SM BR BKN035
     FM211500 28005KT P6SM BKN050
     FM211900 30007KT P6SM VCSH BKN040
     FM220900 32008G15KT P6SM VCSH OVC035=



000
FTUS41 KCTP 211136
TAFUNV
TAF
KUNV 211136Z 2112/2212 23006KT P6SM VCSH BKN025 OVC070
     FM211600 30007KT P6SM VCSH BKN035
     FM220200 33007KT 5SM -SHRA BR OVC030=



000
FTUS41 KCTP 211136
TAFJST
TAF
KJST 211136Z 2112/2212 27007KT 1/4SM -SHRA FG BKN002 OVC015
     FM211400 33007KT 2SM -SHRA BR OVC004
     FM211700 34008KT P6SM VCSH OVC015
     FM220500 35008KT 4SM -SHRA BR BKN004 OVC009=



000
FTUS41 KCTP 211042 AAB
TAFAOO
TAF AMD
KAOO 211042Z 2111/2206 23003KT P6SM BKN030
     FM211700 30007KT P6SM VCSH BKN035
     FM220100 33007KT 5SM -SHRA BR OVC030=



000
FTUS41 KCTP 211042 AAB
TAFAOO
TAF AMD
KAOO 211042Z 2111/2206 23003KT P6SM BKN030
     FM211700 30007KT P6SM VCSH BKN035
     FM220100 33007KT 5SM -SHRA BR OVC030=



000
FTUS41 KCTP 211042 AAB
TAFAOO
TAF AMD
KAOO 211042Z 2111/2206 23003KT P6SM BKN030
     FM211700 30007KT P6SM VCSH BKN035
     FM220100 33007KT 5SM -SHRA BR OVC030=



000
FTUS41 KCTP 211042 AAB
TAFAOO
TAF AMD
KAOO 211042Z 2111/2206 23003KT P6SM BKN030
     FM211700 30007KT P6SM VCSH BKN035
     FM220100 33007KT 5SM -SHRA BR OVC030=



000
FTUS41 KCTP 211041 AAF
TAFJST
TAF AMD
KJST 211041Z 2111/2206 22007KT 1/4SM -SHRA FG BKN002 OVC015
     FM211400 33007KT 2SM -SHRA BR OVC004
     FM211700 34008KT P6SM VCSH OVC015
     FM220500 35008KT 4SM -SHRA BR BKN004 OVC009=



000
FTUS41 KCTP 211041 AAF
TAFJST
TAF AMD
KJST 211041Z 2111/2206 22007KT 1/4SM -SHRA FG BKN002 OVC015
     FM211400 33007KT 2SM -SHRA BR OVC004
     FM211700 34008KT P6SM VCSH OVC015
     FM220500 35008KT 4SM -SHRA BR BKN004 OVC009=



000
FTUS41 KCTP 211041 AAF
TAFJST
TAF AMD
KJST 211041Z 2111/2206 22007KT 1/4SM -SHRA FG BKN002 OVC015
     FM211400 33007KT 2SM -SHRA BR OVC004
     FM211700 34008KT P6SM VCSH OVC015
     FM220500 35008KT 4SM -SHRA BR BKN004 OVC009=



000
FTUS41 KCTP 211041 AAF
TAFJST
TAF AMD
KJST 211041Z 2111/2206 22007KT 1/4SM -SHRA FG BKN002 OVC015
     FM211400 33007KT 2SM -SHRA BR OVC004
     FM211700 34008KT P6SM VCSH OVC015
     FM220500 35008KT 4SM -SHRA BR BKN004 OVC009=



000
FTUS41 KCTP 211040 AAE
TAFJST
TAF AMD
KJST 211040Z 2111/2206 22007KT 3/4SM -SHRA BR BKN002 OVC015
     FM211400 33007KT 2SM -SHRA BR OVC004
     FM211700 34008KT P6SM VCSH OVC015
     FM220500 35008KT 4SM -SHRA BR BKN004 OVC009=



000
FTUS41 KCTP 211040 AAE
TAFJST
TAF AMD
KJST 211040Z 2111/2206 22007KT 3/4SM -SHRA BR BKN002 OVC015
     FM211400 33007KT 2SM -SHRA BR OVC004
     FM211700 34008KT P6SM VCSH OVC015
     FM220500 35008KT 4SM -SHRA BR BKN004 OVC009=



000
FTUS41 KCTP 211040 AAE
TAFJST
TAF AMD
KJST 211040Z 2111/2206 22007KT 3/4SM -SHRA BR BKN002 OVC015
     FM211400 33007KT 2SM -SHRA BR OVC004
     FM211700 34008KT P6SM VCSH OVC015
     FM220500 35008KT 4SM -SHRA BR BKN004 OVC009=



000
FTUS41 KCTP 211040 AAD
TAFMDT
TAF AMD
KMDT 211040Z 2111/2206 VRB05KT 2SM BR BKN035
     FM211300 28005KT P6SM BKN050
     FM211900 30007KT P6SM VCSH BKN040=



000
FTUS41 KCTP 211040 AAD
TAFMDT
TAF AMD
KMDT 211040Z 2111/2206 VRB05KT 2SM BR BKN035
     FM211300 28005KT P6SM BKN050
     FM211900 30007KT P6SM VCSH BKN040=



000
FTUS41 KCTP 211040 AAD
TAFMDT
TAF AMD
KMDT 211040Z 2111/2206 VRB05KT 2SM BR BKN035
     FM211300 28005KT P6SM BKN050
     FM211900 30007KT P6SM VCSH BKN040=



000
FTUS41 KCTP 211040 AAD
TAFMDT
TAF AMD
KMDT 211040Z 2111/2206 VRB05KT 2SM BR BKN035
     FM211300 28005KT P6SM BKN050
     FM211900 30007KT P6SM VCSH BKN040=



000
FTUS41 KCTP 211008 AAD
TAFJST
TAF AMD
KJST 211008Z 2110/2206 22007KT 5SM -SHRA BR BKN006 OVC015
     FM211400 33007KT 2SM -SHRA BR OVC004
     FM211700 34008KT P6SM VCSH OVC015
     FM220500 35008KT 4SM -SHRA BR BKN004 OVC009=



000
FTUS41 KCTP 211008 AAD
TAFJST
TAF AMD
KJST 211008Z 2110/2206 22007KT 5SM -SHRA BR BKN006 OVC015
     FM211400 33007KT 2SM -SHRA BR OVC004
     FM211700 34008KT P6SM VCSH OVC015
     FM220500 35008KT 4SM -SHRA BR BKN004 OVC009=



000
FTUS41 KCTP 211008 AAD
TAFJST
TAF AMD
KJST 211008Z 2110/2206 22007KT 5SM -SHRA BR BKN006 OVC015
     FM211400 33007KT 2SM -SHRA BR OVC004
     FM211700 34008KT P6SM VCSH OVC015
     FM220500 35008KT 4SM -SHRA BR BKN004 OVC009=



000
FTUS41 KCTP 211008 AAD
TAFJST
TAF AMD
KJST 211008Z 2110/2206 22007KT 5SM -SHRA BR BKN006 OVC015
     FM211400 33007KT 2SM -SHRA BR OVC004
     FM211700 34008KT P6SM VCSH OVC015
     FM220500 35008KT 4SM -SHRA BR BKN004 OVC009=



000
FTUS41 KCTP 211006 AAC
TAFMDT
TAF AMD
KMDT 211006Z 2110/2206 VRB05KT 5SM BR BKN035
     FM211300 28005KT P6SM BKN050
     FM211900 30007KT P6SM VCSH BKN040=



000
FTUS41 KCTP 211006 AAC
TAFMDT
TAF AMD
KMDT 211006Z 2110/2206 VRB05KT 5SM BR BKN035
     FM211300 28005KT P6SM BKN050
     FM211900 30007KT P6SM VCSH BKN040=



000
FTUS41 KCTP 211006 AAC
TAFMDT
TAF AMD
KMDT 211006Z 2110/2206 VRB05KT 5SM BR BKN035
     FM211300 28005KT P6SM BKN050
     FM211900 30007KT P6SM VCSH BKN040=



000
FTUS41 KCTP 211006 AAC
TAFMDT
TAF AMD
KMDT 211006Z 2110/2206 VRB05KT 5SM BR BKN035
     FM211300 28005KT P6SM BKN050
     FM211900 30007KT P6SM VCSH BKN040=



000
FTUS41 KCTP 210951 AAC
TAFJST
TAF AMD
KJST 210951Z 2110/2206 22007KT P6SM VCSH BKN008 OVC015
     FM211400 33007KT 2SM -SHRA BR OVC004
     FM211700 34008KT P6SM VCSH OVC015
     FM220500 35008KT 4SM -SHRA BR BKN004 OVC009=



000
FTUS41 KCTP 210951 AAC
TAFJST
TAF AMD
KJST 210951Z 2110/2206 22007KT P6SM VCSH BKN008 OVC015
     FM211400 33007KT 2SM -SHRA BR OVC004
     FM211700 34008KT P6SM VCSH OVC015
     FM220500 35008KT 4SM -SHRA BR BKN004 OVC009=



000
FTUS41 KCTP 210940 AAA
TAFIPT
TAF AMD
KIPT 210940Z 2110/2206 VRB05KT P6SM VCSH OVC040
      TEMPO 2110/2112 5SM SHRA BR
     FM211800 29007KT P6SM VCSH BKN035
     FM220400 32007KT 5SM -SHRA BR OVC030=



000
FTUS41 KCTP 210940 AAB
TAFMDT
TAF AMD
KMDT 210940Z 2110/2206 06005KT P6SM VCSH SCT009 BKN035 OVC060
     FM211100 VRB05KT 5SM BR BKN050
     FM211300 28005KT P6SM BKN050
     FM211900 30007KT P6SM VCSH BKN040=



000
FTUS41 KCTP 210940 AAA
TAFIPT
TAF AMD
KIPT 210940Z 2110/2206 VRB05KT P6SM VCSH OVC040
      TEMPO 2110/2112 5SM SHRA BR
     FM211800 29007KT P6SM VCSH BKN035
     FM220400 32007KT 5SM -SHRA BR OVC030=



000
FTUS41 KCTP 210940 AAA
TAFAOO
TAF AMD
KAOO 210940Z 2110/2206 22006KT P6SM VCSH SCT025 OVC040
     FM211200 23003KT P6SM BKN030
     FM211700 30007KT P6SM VCSH BKN035
     FM220100 33007KT 5SM -SHRA BR OVC030=



000
FTUS41 KCTP 210940 AAC
TAFBFD
TAF AMD
KBFD 210940Z 2110/2206 22005KT P6SM -SHRA OVC004
     FM211400 32007KT 2SM -SHRA BR OVC004
     FM211700 33007KT P6SM VCSH OVC015
     FM220500 34008KT 4SM -SHRA BR BKN004 OVC009=



000
FTUS41 KCTP 210940 AAA
TAFUNV
TAF AMD
KUNV 210940Z 2110/2206 23003KT P6SM VCSH BKN030 OVC070
     FM211600 30007KT P6SM VCSH BKN035
     FM220200 33007KT 5SM -SHRA BR OVC030=



000
FTUS41 KCTP 210940 AAB
TAFJST
TAF AMD
KJST 210940Z 2110/2206 22007KT P6SM VCSH BKN009 OVC015
     FM211400 33007KT 2SM -SHRA BR OVC004
     FM211700 34008KT P6SM VCSH OVC015
     FM220500 35008KT 4SM -SHRA BR BKN004 OVC009=



000
FTUS41 KCTP 210709 AAB
TAFBFD
TAF AMD
KBFD 210709Z 2107/2206 24005KT 3SM -SHRA BR OVC005
     FM211400 32007KT 1SM -SHRA BR OVC004
     FM211700 33007KT P6SM VCSH OVC015
     FM220500 34008KT 4SM -SHRA BR BKN004 OVC009=



000
FTUS41 KCTP 210709 AAB
TAFBFD
TAF AMD
KBFD 210709Z 2107/2206 24005KT 3SM -SHRA BR OVC005
     FM211400 32007KT 1SM -SHRA BR OVC004
     FM211700 33007KT P6SM VCSH OVC015
     FM220500 34008KT 4SM -SHRA BR BKN004 OVC009=



000
FTUS41 KCTP 210708 AAA
TAFJST
TAF AMD
KJST 210708Z 2107/2206 22008KT P6SM -SHRA BKN018 OVC025
     FM211000 26007KT 5SM -SHRA BR BKN009 OVC015
     FM211400 33007KT 2SM -SHRA BR OVC004
     FM211700 34008KT P6SM VCSH OVC015
     FM220500 35008KT 4SM -SHRA BR BKN004 OVC009=



000
FTUS41 KCTP 210708 AAA
TAFJST
TAF AMD
KJST 210708Z 2107/2206 22008KT P6SM -SHRA BKN018 OVC025
     FM211000 26007KT 5SM -SHRA BR BKN009 OVC015
     FM211400 33007KT 2SM -SHRA BR OVC004
     FM211700 34008KT P6SM VCSH OVC015
     FM220500 35008KT 4SM -SHRA BR BKN004 OVC009=



000
FTUS41 KCTP 210628 AAA
TAFMDT
TAF AMD
KMDT 210628Z 2106/2206 18005KT P6SM VCSH BKN035 OVC060
     FM211000 VRB05KT 5SM BR BKN050
     FM211300 28005KT P6SM BKN050
     FM211900 30007KT P6SM VCSH BKN040=



000
FTUS41 KCTP 210628 AAA
TAFMDT
TAF AMD
KMDT 210628Z 2106/2206 18005KT P6SM VCSH BKN035 OVC060
     FM211000 VRB05KT 5SM BR BKN050
     FM211300 28005KT P6SM BKN050
     FM211900 30007KT P6SM VCSH BKN040=



000
FTUS41 KCTP 210557 AAA
TAFBFD
TAF AMD
KBFD 210557Z 2106/2206 23006KT P6SM -SHRA BKN005 OVC012
     FM210800 25005KT 3SM -SHRA BR OVC005
     FM211400 32007KT 1SM -SHRA BR OVC004
     FM211700 33007KT P6SM VCSH OVC015
     FM220500 34008KT 4SM -SHRA BR BKN004 OVC009=



000
FTUS41 KCTP 210557 AAA
TAFBFD
TAF AMD
KBFD 210557Z 2106/2206 23006KT P6SM -SHRA BKN005 OVC012
     FM210800 25005KT 3SM -SHRA BR OVC005
     FM211400 32007KT 1SM -SHRA BR OVC004
     FM211700 33007KT P6SM VCSH OVC015
     FM220500 34008KT 4SM -SHRA BR BKN004 OVC009=



000
FTUS41 KCTP 210540
TAFMDT
TAF
KMDT 210540Z 2106/2206 18005KT 3SM +SHRA BR BKN035 OVC060
     FM211000 VRB05KT 5SM BR BKN050
     FM211300 28005KT P6SM BKN050
     FM211900 30007KT P6SM VCSH BKN040=



000
FTUS41 KCTP 210540
TAFJST
TAF
KJST 210540Z 2106/2206 22007KT P6SM -SHRA BKN025 OVC035
     FM210900 26007KT 5SM -SHRA BR BKN009 OVC015
     FM211400 33007KT 2SM -SHRA BR OVC004
     FM211700 34008KT P6SM VCSH OVC015
     FM220500 35008KT 4SM -SHRA BR BKN004 OVC009=



000
FTUS41 KCTP 210540
TAFIPT
TAF
KIPT 210540Z 2106/2206 VRB05KT P6SM VCSH OVC060
     FM211200 VRB05KT P6SM BKN030
     FM211800 29007KT P6SM VCSH BKN035
     FM220400 32007KT 5SM -SHRA BR OVC030=



000
FTUS41 KCTP 210540
TAFAOO
TAF
KAOO 210540Z 2106/2206 VRB05KT P6SM VCSH OVC040
     FM211000 23003KT P6SM BKN030
     FM211700 30007KT P6SM VCSH BKN035
     FM220100 33007KT 5SM -SHRA BR OVC030=



000
FTUS41 KCTP 210540
TAFBFD
TAF
KBFD 210540Z 2106/2206 23006KT P6SM -SHRA BKN006 OVC012
     FM210800 25005KT 3SM -SHRA BR OVC005
     FM211400 32007KT 1SM -SHRA BR OVC004
     FM211700 33007KT P6SM VCSH OVC015
     FM220500 34008KT 4SM -SHRA BR BKN004 OVC009=



000
FTUS41 KCTP 210540
TAFUNV
TAF
KUNV 210540Z 2106/2206 22003KT P6SM VCSH OVC070
     FM211100 23003KT P6SM BKN030
     FM211700 30007KT P6SM VCSH BKN035
     FM220200 33007KT 5SM -SHRA BR OVC030=



000
FTUS41 KCTP 210540
TAFMDT
TAF
KMDT 210540Z 2106/2206 18005KT 3SM +SHRA BR BKN035 OVC060
     FM211000 VRB05KT 5SM BR BKN050
     FM211300 28005KT P6SM BKN050
     FM211900 30007KT P6SM VCSH BKN040=



000
FTUS41 KCTP 210540
TAFJST
TAF
KJST 210540Z 2106/2206 22007KT P6SM -SHRA BKN025 OVC035
     FM210900 26007KT 5SM -SHRA BR BKN009 OVC015
     FM211400 33007KT 2SM -SHRA BR OVC004
     FM211700 34008KT P6SM VCSH OVC015
     FM220500 35008KT 4SM -SHRA BR BKN004 OVC009=



000
FTUS41 KCTP 210540
TAFBFD
TAF
KBFD 210540Z 2106/2206 23006KT P6SM -SHRA BKN006 OVC012
     FM210800 25005KT 3SM -SHRA BR OVC005
     FM211400 32007KT 1SM -SHRA BR OVC004
     FM211700 33007KT P6SM VCSH OVC015
     FM220500 34008KT 4SM -SHRA BR BKN004 OVC009=



000
FTUS41 KCTP 210540
TAFIPT
TAF
KIPT 210540Z 2106/2206 VRB05KT P6SM VCSH OVC060
     FM211200 VRB05KT P6SM BKN030
     FM211800 29007KT P6SM VCSH BKN035
     FM220400 32007KT 5SM -SHRA BR OVC030=



000
FTUS41 KCTP 210540
TAFUNV
TAF
KUNV 210540Z 2106/2206 22003KT P6SM VCSH OVC070
     FM211100 23003KT P6SM BKN030
     FM211700 30007KT P6SM VCSH BKN035
     FM220200 33007KT 5SM -SHRA BR OVC030=



000
FTUS41 KCTP 210540
TAFAOO
TAF
KAOO 210540Z 2106/2206 VRB05KT P6SM VCSH OVC040
     FM211000 23003KT P6SM BKN030
     FM211700 30007KT P6SM VCSH BKN035
     FM220100 33007KT 5SM -SHRA BR OVC030=



000
FTUS41 KCTP 210418 AAB
TAFJST
TAF AMD
KJST 210418Z 2104/2124 24008KT P6SM VCSH BKN025 OVC050
     FM210700 22006KT 6SM BR BKN030 OVC050
     FM211100 26006KT 3SM BR OVC005
     FM211700 29008KT P6SM VCSH OVC015=



000
FTUS41 KCTP 210418 AAB
TAFJST
TAF AMD
KJST 210418Z 2104/2124 24008KT P6SM VCSH BKN025 OVC050
     FM210700 22006KT 6SM BR BKN030 OVC050
     FM211100 26006KT 3SM BR OVC005
     FM211700 29008KT P6SM VCSH OVC015=



000
FTUS41 KCTP 210418 AAB
TAFJST
TAF AMD
KJST 210418Z 2104/2124 24008KT P6SM VCSH BKN025 OVC050
     FM210700 22006KT 6SM BR BKN030 OVC050
     FM211100 26006KT 3SM BR OVC005
     FM211700 29008KT P6SM VCSH OVC015=



000
FTUS41 KCTP 210313 AAB
TAFMDT
TAF AMD
KMDT 210313Z 2103/2124 18005KT P6SM VCSH OVC060
     FM211000 VRB03KT 5SM BR BKN050
     FM211300 28003KT P6SM BKN050
     FM211900 30005KT P6SM VCSH BKN040=



000
FTUS41 KCTP 210313 AAB
TAFMDT
TAF AMD
KMDT 210313Z 2103/2124 18005KT P6SM VCSH OVC060
     FM211000 VRB03KT 5SM BR BKN050
     FM211300 28003KT P6SM BKN050
     FM211900 30005KT P6SM VCSH BKN040=



000
FTUS41 KCTP 210313 AAB
TAFMDT
TAF AMD
KMDT 210313Z 2103/2124 18005KT P6SM VCSH OVC060
     FM211000 VRB03KT 5SM BR BKN050
     FM211300 28003KT P6SM BKN050
     FM211900 30005KT P6SM VCSH BKN040=



000
FTUS41 KCTP 210313 AAB
TAFMDT
TAF AMD
KMDT 210313Z 2103/2124 18005KT P6SM VCSH OVC060
     FM211000 VRB03KT 5SM BR BKN050
     FM211300 28003KT P6SM BKN050
     FM211900 30005KT P6SM VCSH BKN040=



000
FTUS41 KCTP 210311 AAA
TAFMDT
TAF AMD
KMDT 210311Z 2103/2124 18005KT P6SM VCSH OVC060
     FM211000 VRB03KT P6SM BKN050
     FM211900 30005KT P6SM VCSH BKN040=



000
FTUS41 KCTP 210311 AAA
TAFMDT
TAF AMD
KMDT 210311Z 2103/2124 18005KT P6SM VCSH OVC060
     FM211000 VRB03KT P6SM BKN050
     FM211900 30005KT P6SM VCSH BKN040=



000
FTUS41 KCTP 210311 AAA
TAFMDT
TAF AMD
KMDT 210311Z 2103/2124 18005KT P6SM VCSH OVC060
     FM211000 VRB03KT P6SM BKN050
     FM211900 30005KT P6SM VCSH BKN040=



000
FTUS41 KCTP 210311 AAA
TAFMDT
TAF AMD
KMDT 210311Z 2103/2124 18005KT P6SM VCSH OVC060
     FM211000 VRB03KT P6SM BKN050
     FM211900 30005KT P6SM VCSH BKN040=



000
FTUS41 KCTP 210253 AAA
TAFIPT
TAF AMD
KIPT 210253Z 2103/2124 VRB03KT P6SM VCSH OVC060
     FM210900 VRB02KT 6SM BR BKN030 OVC050
     FM211900 29004KT P6SM VCSH BKN035=



000
FTUS41 KCTP 210253 AAA
TAFIPT
TAF AMD
KIPT 210253Z 2103/2124 VRB03KT P6SM VCSH OVC060
     FM210900 VRB02KT 6SM BR BKN030 OVC050
     FM211900 29004KT P6SM VCSH BKN035=



000
FTUS41 KCTP 210253 AAA
TAFIPT
TAF AMD
KIPT 210253Z 2103/2124 VRB03KT P6SM VCSH OVC060
     FM210900 VRB02KT 6SM BR BKN030 OVC050
     FM211900 29004KT P6SM VCSH BKN035=



000
FTUS41 KCTP 210251 AAA
TAFUNV
TAF AMD
KUNV 210251Z 2103/2124 22003KT P6SM VCSH OVC040
     FM210800 23003KT 6SM BR BKN025 OVC035
     FM211700 30007KT P6SM VCSH BKN035=



000
FTUS41 KCTP 210251 AAA
TAFUNV
TAF AMD
KUNV 210251Z 2103/2124 22003KT P6SM VCSH OVC040
     FM210800 23003KT 6SM BR BKN025 OVC035
     FM211700 30007KT P6SM VCSH BKN035=



000
FTUS41 KCTP 210251 AAA
TAFUNV
TAF AMD
KUNV 210251Z 2103/2124 22003KT P6SM VCSH OVC040
     FM210800 23003KT 6SM BR BKN025 OVC035
     FM211700 30007KT P6SM VCSH BKN035=



000
FTUS41 KCTP 210251 AAA
TAFUNV
TAF AMD
KUNV 210251Z 2103/2124 22003KT P6SM VCSH OVC040
     FM210800 23003KT 6SM BR BKN025 OVC035
     FM211700 30007KT P6SM VCSH BKN035=



000
FTUS41 KCTP 210250 AAA
TAFAOO
TAF AMD
KAOO 210250Z 2103/2124 22003KT P6SM VCSH OVC040
     FM210800 23003KT 6SM BR BKN030 OVC050
     FM211700 30007KT P6SM VCSH BKN035=



000
FTUS41 KCTP 210250 AAA
TAFAOO
TAF AMD
KAOO 210250Z 2103/2124 22003KT P6SM VCSH OVC040
     FM210800 23003KT 6SM BR BKN030 OVC050
     FM211700 30007KT P6SM VCSH BKN035=



000
FTUS41 KCTP 210250 AAA
TAFAOO
TAF AMD
KAOO 210250Z 2103/2124 22003KT P6SM VCSH OVC040
     FM210800 23003KT 6SM BR BKN030 OVC050
     FM211700 30007KT P6SM VCSH BKN035=



000
FTUS41 KCTP 210250 AAA
TAFAOO
TAF AMD
KAOO 210250Z 2103/2124 22003KT P6SM VCSH OVC040
     FM210800 23003KT 6SM BR BKN030 OVC050
     FM211700 30007KT P6SM VCSH BKN035=



000
FTUS41 KCTP 210246 AAA
TAFJST
TAF AMD
KJST 210246Z 2103/2124 21007KT P6SM VCSH SCT025 OVC050
     FM210700 22006KT 6SM BR BKN030 OVC050
     FM211100 26006KT 3SM BR OVC005
     FM211700 29008KT P6SM VCSH OVC015=



000
FTUS41 KCTP 210246 AAA
TAFJST
TAF AMD
KJST 210246Z 2103/2124 21007KT P6SM VCSH SCT025 OVC050
     FM210700 22006KT 6SM BR BKN030 OVC050
     FM211100 26006KT 3SM BR OVC005
     FM211700 29008KT P6SM VCSH OVC015=



000
FTUS41 KCTP 210246 AAA
TAFJST
TAF AMD
KJST 210246Z 2103/2124 21007KT P6SM VCSH SCT025 OVC050
     FM210700 22006KT 6SM BR BKN030 OVC050
     FM211100 26006KT 3SM BR OVC005
     FM211700 29008KT P6SM VCSH OVC015=



000
FTUS41 KCTP 210246 AAA
TAFJST
TAF AMD
KJST 210246Z 2103/2124 21007KT P6SM VCSH SCT025 OVC050
     FM210700 22006KT 6SM BR BKN030 OVC050
     FM211100 26006KT 3SM BR OVC005
     FM211700 29008KT P6SM VCSH OVC015=



000
FTUS41 KCTP 210244 AAA
TAFBFD
TAF AMD
KBFD 210244Z 2103/2124 20003KT P6SM VCSH SCT025 OVC035
     FM210330 20005KT 5SM -SHRA SCT015 OVC020
     FM210530 20003KT 2SM -SHRA BR OVC007
     FM210700 20002KT 1SM BR VCSH OVC003
     FM211700 31006KT P6SM VCSH OVC015=



000
FTUS41 KCTP 210244 AAA
TAFBFD
TAF AMD
KBFD 210244Z 2103/2124 20003KT P6SM VCSH SCT025 OVC035
     FM210330 20005KT 5SM -SHRA SCT015 OVC020
     FM210530 20003KT 2SM -SHRA BR OVC007
     FM210700 20002KT 1SM BR VCSH OVC003
     FM211700 31006KT P6SM VCSH OVC015=



000
FTUS41 KCTP 210244 AAA
TAFBFD
TAF AMD
KBFD 210244Z 2103/2124 20003KT P6SM VCSH SCT025 OVC035
     FM210330 20005KT 5SM -SHRA SCT015 OVC020
     FM210530 20003KT 2SM -SHRA BR OVC007
     FM210700 20002KT 1SM BR VCSH OVC003
     FM211700 31006KT P6SM VCSH OVC015=



000
FTUS41 KCTP 210244 AAA
TAFBFD
TAF AMD
KBFD 210244Z 2103/2124 20003KT P6SM VCSH SCT025 OVC035
     FM210330 20005KT 5SM -SHRA SCT015 OVC020
     FM210530 20003KT 2SM -SHRA BR OVC007
     FM210700 20002KT 1SM BR VCSH OVC003
     FM211700 31006KT P6SM VCSH OVC015=



000
FTUS41 KCTP 202333
TAFUNV
TAF
KUNV 202333Z 2100/2124 22006KT P6SM OVC070
     FM210200 22004KT P6SM VCSH OVC040
     FM210700 23003KT 6SM BR VCSH BKN025 OVC035
     FM211700 30007KT P6SM VCSH BKN035=



000
FTUS41 KCTP 202333
TAFBFD
TAF
KBFD 202333Z 2100/2124 19006KT P6SM VCSH SCT025 OVC040
     FM210130 18005KT 5SM -SHRA OVC025
     FM210530 18003KT 2SM -SHRA BR OVC007
     FM210700 18002KT 1SM BR VCSH OVC003
     FM211700 31006KT P6SM VCSH OVC015=



000
FTUS41 KCTP 202333
TAFBFD
TAF
KBFD 202333Z 2100/2124 19006KT P6SM VCSH SCT025 OVC040
     FM210130 18005KT 5SM -SHRA OVC025
     FM210530 18003KT 2SM -SHRA BR OVC007
     FM210700 18002KT 1SM BR VCSH OVC003
     FM211700 31006KT P6SM VCSH OVC015=



000
FTUS41 KCTP 202333
TAFIPT
TAF
KIPT 202333Z 2100/2124 VRB05KT P6SM SCT060 OVC100
     FM210400 VRB03KT P6SM VCSH OVC060
     FM210900 VRB02KT 6SM BR VCSH BKN030 OVC050
     FM211900 29004KT P6SM VCSH BKN035=



000
FTUS41 KCTP 202333
TAFJST
TAF
KJST 202333Z 2100/2124 20007KT P6SM OVC045
     FM210200 21007KT P6SM VCSH SCT025 OVC050
     FM210700 22006KT 5SM BR BKN030 OVC050
     FM211200 26006KT 3SM BR OVC005
     FM211700 29008KT P6SM VCSH OVC015=



000
FTUS41 KCTP 202333
TAFIPT
TAF
KIPT 202333Z 2100/2124 VRB05KT P6SM SCT060 OVC100
     FM210400 VRB03KT P6SM VCSH OVC060
     FM210900 VRB02KT 6SM BR VCSH BKN030 OVC050
     FM211900 29004KT P6SM VCSH BKN035=



000
FTUS41 KCTP 202333
TAFAOO
TAF
KAOO 202333Z 2100/2124 21007KT P6SM OVC060
     FM210200 22004KT P6SM VCSH OVC040
     FM210600 21003KT 6SM BR VCSH BKN030 OVC050
     FM211700 30007KT P6SM VCSH BKN035=



000
FTUS41 KCTP 202333
TAFJST
TAF
KJST 202333Z 2100/2124 20007KT P6SM OVC045
     FM210200 21007KT P6SM VCSH SCT025 OVC050
     FM210700 22006KT 5SM BR BKN030 OVC050
     FM211200 26006KT 3SM BR OVC005
     FM211700 29008KT P6SM VCSH OVC015=



000
FTUS41 KCTP 202333
TAFAOO
TAF
KAOO 202333Z 2100/2124 21007KT P6SM OVC060
     FM210200 22004KT P6SM VCSH OVC040
     FM210600 21003KT 6SM BR VCSH BKN030 OVC050
     FM211700 30007KT P6SM VCSH BKN035=



000
FTUS41 KCTP 202333
TAFUNV
TAF
KUNV 202333Z 2100/2124 22006KT P6SM OVC070
     FM210200 22004KT P6SM VCSH OVC040
     FM210700 23003KT 6SM BR VCSH BKN025 OVC035
     FM211700 30007KT P6SM VCSH BKN035=



000
FTUS41 KCTP 202333
TAFMDT
TAF
KMDT 202333Z 2100/2124 18005KT P6SM VCSH OVC060
     FM211000 VRB03KT P6SM BKN050
     FM211900 30005KT P6SM VCSH BKN040=



000
FTUS41 KCTP 202333
TAFMDT
TAF
KMDT 202333Z 2100/2124 18005KT P6SM VCSH OVC060
     FM211000 VRB03KT P6SM BKN050
     FM211900 30005KT P6SM VCSH BKN040=



000
FTUS41 KCTP 202124 AAB
TAFMDT
TAF AMD
KMDT 202124Z 2021/2118 20006KT P6SM OVC120
     FM202300 18005KT P6SM VCSH OVC060
     FM211000 18005KT P6SM VCSH OVC050=



000
FTUS41 KCTP 202124 AAB
TAFMDT
TAF AMD
KMDT 202124Z 2021/2118 20006KT P6SM OVC120
     FM202300 18005KT P6SM VCSH OVC060
     FM211000 18005KT P6SM VCSH OVC050=



000
FTUS41 KCTP 202122 AAA
TAFIPT
TAF AMD
KIPT 202122Z 2021/2118 VRB05KT P6SM SCT060 OVC100
     FM210300 VRB03KT P6SM VCSH OVC060
     FM210800 00000KT 6SM BR VCSH BKN030 OVC050
     FM211200 26005KT 5SM -SHRA BR OVC015=



000
FTUS41 KCTP 202122 AAA
TAFIPT
TAF AMD
KIPT 202122Z 2021/2118 VRB05KT P6SM SCT060 OVC100
     FM210300 VRB03KT P6SM VCSH OVC060
     FM210800 00000KT 6SM BR VCSH BKN030 OVC050
     FM211200 26005KT 5SM -SHRA BR OVC015=



000
FTUS41 KCTP 202121 AAA
TAFUNV
TAF AMD
KUNV 202121Z 2021/2118 02006KT P6SM VCSH OVC070
     FM210200 22004KT P6SM VCSH OVC040
     FM210700 00000KT 6SM BR VCSH BKN025 OVC035
     FM211100 26005KT 5SM -SHRA BR OVC015=



000
FTUS41 KCTP 202121 AAA
TAFUNV
TAF AMD
KUNV 202121Z 2021/2118 02006KT P6SM VCSH OVC070
     FM210200 22004KT P6SM VCSH OVC040
     FM210700 00000KT 6SM BR VCSH BKN025 OVC035
     FM211100 26005KT 5SM -SHRA BR OVC015=



000
FTUS41 KCTP 202109 AAA
TAFAOO
TAF AMD
KAOO 202109Z 2021/2118 21007KT P6SM OVC060
     FM210200 22004KT P6SM VCSH OVC040
     FM210800 00000KT 6SM BR VCSH BKN030 OVC050
     FM211200 26005KT 5SM -SHRA BR OVC015=



000
FTUS41 KCTP 202109 AAA
TAFAOO
TAF AMD
KAOO 202109Z 2021/2118 21007KT P6SM OVC060
     FM210200 22004KT P6SM VCSH OVC040
     FM210800 00000KT 6SM BR VCSH BKN030 OVC050
     FM211200 26005KT 5SM -SHRA BR OVC015=



000
FTUS41 KCTP 202028 AAA
TAFJST
TAF AMD
KJST 202028Z 2020/2118 20007KT P6SM OVC060
     FM210200 21007KT P6SM VCSH SCT025 OVC050
     FM210700 25006KT 5SM -SHRA BR BKN030 OVC050
     FM211000 26005KT 3SM -DZ BR OVC007=



000
FTUS41 KCTP 202028 AAA
TAFJST
TAF AMD
KJST 202028Z 2020/2118 20007KT P6SM OVC060
     FM210200 21007KT P6SM VCSH SCT025 OVC050
     FM210700 25006KT 5SM -SHRA BR BKN030 OVC050
     FM211000 26005KT 3SM -DZ BR OVC007=



000
FTUS41 KCTP 202013 AAA
TAFBFD
TAF AMD
KBFD 202013Z 2020/2118 20008KT P6SM VCSH SCT025 OVC050
     FM210200 20005KT 5SM -SHRA BKN025 OVC040
     FM210600 18004KT 2SM -SHRA BR SCT007 OVC012
     FM210900 00000KT 2SM -RA BR OVC007
     FM211400 26007KT 5SM -SHRA OVC012=



000
FTUS41 KCTP 202013 AAA
TAFBFD
TAF AMD
KBFD 202013Z 2020/2118 20008KT P6SM VCSH SCT025 OVC050
     FM210200 20005KT 5SM -SHRA BKN025 OVC040
     FM210600 18004KT 2SM -SHRA BR SCT007 OVC012
     FM210900 00000KT 2SM -RA BR OVC007
     FM211400 26007KT 5SM -SHRA OVC012=



000
FTUS41 KCTP 201932 AAA
TAFMDT
TAF AMD
KMDT 201932Z 2020/2118 19008KT P6SM BKN120 OVC220
      TEMPO 2101/2105 5SM -SHRA OVC050
     FM211000 18005KT P6SM VCSH OVC050=



000
FTUS41 KCTP 201738 CCA
TAFMDT
TAF COR
KMDT 201738Z 2018/2118 19010G15KT P6SM BKN120
      TEMPO 2101/2105 5SM -SHRA OVC050
     FM211000 18005KT P6SM VCSH OVC050=



000
FTUS41 KCTP 201738 CCA
TAFMDT
TAF COR
KMDT 201738Z 2018/2118 19010G15KT P6SM BKN120
      TEMPO 2101/2105 5SM -SHRA OVC050
     FM211000 18005KT P6SM VCSH OVC050=



000
FTUS41 KCTP 201737
TAFBFD
TAF
KBFD 201737Z 2018/2118 20008KT P6SM SCT025 OVC050
     FM210100 20005KT 5SM -SHRA BKN025 OVC040
     FM210600 18004KT 2SM -SHRA BR SCT007 OVC012
     FM210900 00000KT 2SM -RA BR OVC007
     FM211400 26007KT 5SM -SHRA OVC012=



000
FTUS41 KCTP 201737
TAFAOO
TAF
KAOO 201737Z 2018/2118 21007KT P6SM BKN120
     FM210300 VRB03KT P6SM VCSH OVC050
     FM210800 00000KT 6SM BR VCSH BKN030 OVC050
     FM211200 26005KT 5SM -SHRA BR OVC015=



000
FTUS41 KCTP 201737
TAFJST
TAF
KJST 201737Z 2018/2118 21006KT P6SM BKN100
     FM210300 22007KT P6SM VCSH OVC050
     FM210700 25006KT 5SM -SHRA BR BKN030 OVC050
     FM211000 26005KT 3SM -DZ BR OVC007=



000
FTUS41 KCTP 201737
TAFIPT
TAF
KIPT 201737Z 2018/2118 14006KT P6SM BKN120
     FM210300 VRB03KT P6SM VCSH OVC050
     FM210800 00000KT 6SM BR VCSH BKN030 OVC050
     FM211200 26005KT 5SM -SHRA BR OVC015=



000
FTUS41 KCTP 201737
TAFUNV
TAF
KUNV 201737Z 2018/2118 22008KT P6SM BKN120
     FM210300 VRB03KT P6SM VCSH OVC050
     FM210700 00000KT 6SM BR VCSH BKN025 OVC035
     FM211100 26005KT 5SM -SHRA BR OVC015=



000
FTUS41 KCTP 201737
TAFMDT
TAF
KMDT 201737Z 2018/2118 19006KT P6SM BKN120
      TEMPO 2101/2105 5SM -SHRA OVC050
     FM211000 18005KT P6SM VCSH OVC050=



000
FTUS41 KCTP 201520 AAA
TAFIPT
TAF AMD
KIPT 201520Z 2015/2112 10005KT P6SM BKN200
     FM201700 14006KT P6SM BKN120
     FM210300 VRB03KT P6SM VCSH OVC050=



000
FTUS41 KCTP 201520 AAA
TAFAOO
TAF AMD
KAOO 201520Z 2015/2112 21007KT P6SM BKN120
     FM210300 23005KT P6SM VCSH OVC050=



000
FTUS41 KCTP 201520 AAA
TAFIPT
TAF AMD
KIPT 201520Z 2015/2112 10005KT P6SM BKN200
     FM201700 14006KT P6SM BKN120
     FM210300 VRB03KT P6SM VCSH OVC050=



000
FTUS41 KCTP 201520 AAA
TAFUNV
TAF AMD
KUNV 201520Z 2015/2112 22008KT P6SM BKN120
     FM210300 24005KT P6SM VCSH OVC050=



000
FTUS41 KCTP 201520 AAA
TAFJST
TAF AMD
KJST 201520Z 2015/2112 21006KT P6SM BKN120
     FM210300 23007KT P6SM VCSH OVC050=



000
FTUS41 KCTP 201520 AAB
TAFBFD
TAF AMD
KBFD 201520Z 2015/2112 20008KT P6SM BKN050 OVC080
     FM210300 20005KT P6SM SCT025 OVC040=



000
FTUS41 KCTP 201520 AAB
TAFBFD
TAF AMD
KBFD 201520Z 2015/2112 20008KT P6SM BKN050 OVC080
     FM210300 20005KT P6SM SCT025 OVC040=



000
FTUS41 KCTP 201520 AAA
TAFJST
TAF AMD
KJST 201520Z 2015/2112 21006KT P6SM BKN120
     FM210300 23007KT P6SM VCSH OVC050=



000
FTUS41 KCTP 201520 AAA
TAFUNV
TAF AMD
KUNV 201520Z 2015/2112 22008KT P6SM BKN120
     FM210300 24005KT P6SM VCSH OVC050=



000
FTUS41 KCTP 201520 AAA
TAFMDT
TAF AMD
KMDT 201520Z 2015/2112 14005KT P6SM BKN150
     FM201700 19006KT P6SM BKN150
     FM210400 18005KT P6SM VCSH OVC080=



000
FTUS41 KCTP 201520 AAA
TAFMDT
TAF AMD
KMDT 201520Z 2015/2112 14005KT P6SM BKN150
     FM201700 19006KT P6SM BKN150
     FM210400 18005KT P6SM VCSH OVC080=



000
FTUS41 KCTP 201520 AAA
TAFAOO
TAF AMD
KAOO 201520Z 2015/2112 21007KT P6SM BKN120
     FM210300 23005KT P6SM VCSH OVC050=



000
FTUS41 KCTP 201306 AAA
TAFBFD
TAF AMD
KBFD 201306Z 2013/2112 20005KT P6SM BKN050 OVC080
     FM202000 20006KT P6SM VCSH OVC040
     FM210300 20005KT P6SM SCT025 OVC040=



000
FTUS41 KCTP 201306 AAA
TAFBFD
TAF AMD
KBFD 201306Z 2013/2112 20005KT P6SM BKN050 OVC080
     FM202000 20006KT P6SM VCSH OVC040
     FM210300 20005KT P6SM SCT025 OVC040=



000
FTUS41 KCTP 201124
TAFMDT
TAF
KMDT 201124Z 2012/2112 07005KT P6SM SCT120 SCT200
     FM201600 19006KT P6SM BKN120
     FM210400 18005KT P6SM VCSH OVC080=



000
FTUS41 KCTP 201124
TAFAOO
TAF
KAOO 201124Z 2012/2112 22005KT P6SM BKN120
     FM201400 22008KT P6SM BKN100
     FM210300 23005KT P6SM VCSH OVC050=



000
FTUS41 KCTP 201124
TAFBFD
TAF
KBFD 201124Z 2012/2112 20005KT P6SM BKN150
     FM202000 20006KT P6SM VCSH OVC040
     FM210300 20005KT P6SM SCT025 OVC040=



000
FTUS41 KCTP 201124
TAFIPT
TAF
KIPT 201124Z 2012/2112 08005KT P6SM BKN100
     FM201400 14006KT P6SM BKN100
     FM210300 VRB03KT P6SM VCSH OVC050=



000
FTUS41 KCTP 201124
TAFJST
TAF
KJST 201124Z 2012/2112 21006KT P6SM BKN150
     FM201300 22009KT P6SM BKN100
     FM210300 23007KT P6SM VCSH OVC050=



000
FTUS41 KCTP 201124
TAFUNV
TAF
KUNV 201124Z 2012/2112 VRB03KT P6SM BKN120
     FM201400 22008KT P6SM BKN100
     FM210300 24005KT P6SM VCSH OVC050=



000
FTUS41 KCTP 201124
TAFUNV
TAF
KUNV 201124Z 2012/2112 VRB03KT P6SM BKN120
     FM201400 22008KT P6SM BKN100
     FM210300 24005KT P6SM VCSH OVC050=



000
FTUS41 KCTP 201124
TAFJST
TAF
KJST 201124Z 2012/2112 21006KT P6SM BKN150
     FM201300 22009KT P6SM BKN100
     FM210300 23007KT P6SM VCSH OVC050=



000
FTUS41 KCTP 201124
TAFAOO
TAF
KAOO 201124Z 2012/2112 22005KT P6SM BKN120
     FM201400 22008KT P6SM BKN100
     FM210300 23005KT P6SM VCSH OVC050=



000
FTUS41 KCTP 201124
TAFBFD
TAF
KBFD 201124Z 2012/2112 20005KT P6SM BKN150
     FM202000 20006KT P6SM VCSH OVC040
     FM210300 20005KT P6SM SCT025 OVC040=



000
FTUS41 KCTP 201124
TAFMDT
TAF
KMDT 201124Z 2012/2112 07005KT P6SM SCT120 SCT200
     FM201600 19006KT P6SM BKN120
     FM210400 18005KT P6SM VCSH OVC080=



000
FTUS41 KCTP 201124
TAFIPT
TAF
KIPT 201124Z 2012/2112 08005KT P6SM BKN100
     FM201400 14006KT P6SM BKN100
     FM210300 VRB03KT P6SM VCSH OVC050=



000
FTUS41 KCTP 201102 AAB
TAFIPT
TAF AMD
KIPT 201102Z 2011/2106 VRB03KT P6SM BKN006
     FM201230 VRB03KT P6SM SCT100
     FM201400 14006KT P6SM BKN100=



000
FTUS41 KCTP 201102 AAB
TAFIPT
TAF AMD
KIPT 201102Z 2011/2106 VRB03KT P6SM BKN006
     FM201230 VRB03KT P6SM SCT100
     FM201400 14006KT P6SM BKN100=



000
FTUS41 KCTP 200919 AAA
TAFAOO
TAF AMD
KAOO 200919Z 2009/2106 22005KT P6SM BKN200
     FM201400 22008KT P6SM BKN100=



000
FTUS41 KCTP 200919 AAA
TAFMDT
TAF AMD
KMDT 200919Z 2009/2106 VRB03KT P6SM SCT120 SCT200
     FM201600 19006KT P6SM BKN120=



000
FTUS41 KCTP 200919 AAA
TAFUNV
TAF AMD
KUNV 200919Z 2009/2106 VRB03KT P6SM BKN120
     FM201400 22008KT P6SM BKN100=



000
FTUS41 KCTP 200919 AAA
TAFMDT
TAF AMD
KMDT 200919Z 2009/2106 VRB03KT P6SM SCT120 SCT200
     FM201600 19006KT P6SM BKN120=



000
FTUS41 KCTP 200919 AAA
TAFUNV
TAF AMD
KUNV 200919Z 2009/2106 VRB03KT P6SM BKN120
     FM201400 22008KT P6SM BKN100=



000
FTUS41 KCTP 200919 AAA
TAFBFD
TAF AMD
KBFD 200919Z 2009/2106 VRB03KT P6SM BKN150
     FM202000 20006KT P6SM VCSH OVC040=



000
FTUS41 KCTP 200919 AAA
TAFIPT
TAF AMD
KIPT 200919Z 2009/2106 VRB03KT P6SM SCT120
     FM201400 14006KT P6SM BKN100=



000
FTUS41 KCTP 200919 AAA
TAFBFD
TAF AMD
KBFD 200919Z 2009/2106 VRB03KT P6SM BKN150
     FM202000 20006KT P6SM VCSH OVC040=



000
FTUS41 KCTP 200919 AAA
TAFJST
TAF AMD
KJST 200919Z 2009/2106 23006KT P6SM BKN150
     FM201300 22009KT P6SM BKN100=



000
FTUS41 KCTP 200919 AAA
TAFAOO
TAF AMD
KAOO 200919Z 2009/2106 22005KT P6SM BKN200
     FM201400 22008KT P6SM BKN100=



000
FTUS41 KCTP 200919 AAA
TAFJST
TAF AMD
KJST 200919Z 2009/2106 23006KT P6SM BKN150
     FM201300 22009KT P6SM BKN100=



000
FTUS41 KCTP 200919 AAA
TAFIPT
TAF AMD
KIPT 200919Z 2009/2106 VRB03KT P6SM SCT120
     FM201400 14006KT P6SM BKN100=



000
FTUS41 KCTP 200526
TAFBFD
TAF
KBFD 200526Z 2006/2106 VRB03KT P6SM OVC120
     FM202000 20006KT P6SM VCSH OVC040=



000
FTUS41 KCTP 200526
TAFUNV
TAF
KUNV 200526Z 2006/2106 VRB03KT P6SM BKN200
     FM201400 22008KT P6SM BKN100=



000
FTUS41 KCTP 200526
TAFIPT
TAF
KIPT 200526Z 2006/2106 VRB03KT P6SM BKN200
     FM201400 14006KT P6SM BKN100=



000
FTUS41 KCTP 200526
TAFJST
TAF
KJST 200526Z 2006/2106 23008KT P6SM SCT150
     FM201300 22009KT P6SM BKN100=



000
FTUS41 KCTP 200526
TAFAOO
TAF
KAOO 200526Z 2006/2106 VRB03KT P6SM BKN200
     FM201400 22008KT P6SM BKN100=



000
FTUS41 KCTP 200526
TAFJST
TAF
KJST 200526Z 2006/2106 23008KT P6SM SCT150
     FM201300 22009KT P6SM BKN100=



000
FTUS41 KCTP 200526
TAFBFD
TAF
KBFD 200526Z 2006/2106 VRB03KT P6SM OVC120
     FM202000 20006KT P6SM VCSH OVC040=



000
FTUS41 KCTP 200526
TAFUNV
TAF
KUNV 200526Z 2006/2106 VRB03KT P6SM BKN200
     FM201400 22008KT P6SM BKN100=



000
FTUS41 KCTP 200526
TAFBFD
TAF
KBFD 200526Z 2006/2106 VRB03KT P6SM OVC120
     FM202000 20006KT P6SM VCSH OVC040=



000
FTUS41 KCTP 200526
TAFMDT
TAF
KMDT 200526Z 2006/2106 VRB03KT P6SM BKN200
     FM201600 19006KT P6SM BKN120=



000
FTUS41 KCTP 200526
TAFAOO
TAF
KAOO 200526Z 2006/2106 VRB03KT P6SM BKN200
     FM201400 22008KT P6SM BKN100=



000
FTUS41 KCTP 200526
TAFIPT
TAF
KIPT 200526Z 2006/2106 VRB03KT P6SM BKN200
     FM201400 14006KT P6SM BKN100=



000
FTUS41 KCTP 200526
TAFMDT
TAF
KMDT 200526Z 2006/2106 VRB03KT P6SM BKN200
     FM201600 19006KT P6SM BKN120=



000
FTUS41 KCTP 200526
TAFUNV
TAF
KUNV 200526Z 2006/2106 VRB03KT P6SM BKN200
     FM201400 22008KT P6SM BKN100=



000
FTUS41 KCTP 200526
TAFJST
TAF
KJST 200526Z 2006/2106 23008KT P6SM SCT150
     FM201300 22009KT P6SM BKN100=



000
FTUS41 KCTP 200526
TAFMDT
TAF
KMDT 200526Z 2006/2106 VRB03KT P6SM BKN200
     FM201600 19006KT P6SM BKN120=



000
FTUS41 KCTP 200526
TAFAOO
TAF
KAOO 200526Z 2006/2106 VRB03KT P6SM BKN200
     FM201400 22008KT P6SM BKN100=



000
FTUS41 KCTP 200526
TAFIPT
TAF
KIPT 200526Z 2006/2106 VRB03KT P6SM BKN200
     FM201400 14006KT P6SM BKN100=



000
FTUS41 KCTP 200236 AAA
TAFMDT
TAF AMD
KMDT 200236Z 2003/2024 VRB03KT P6SM BKN200
     FM201600 19006KT P6SM BKN120=



000
FTUS41 KCTP 200235 AAA
TAFUNV
TAF AMD
KUNV 200235Z 2003/2024 VRB03KT P6SM BKN200
     FM201400 22008KT P6SM BKN100=



000
FTUS41 KCTP 200235 AAA
TAFUNV
TAF AMD
KUNV 200235Z 2003/2024 VRB03KT P6SM BKN200
     FM201400 22008KT P6SM BKN100=



000
FTUS41 KCTP 200235 AAA
TAFIPT
TAF AMD
KIPT 200235Z 2003/2024 VRB03KT P6SM BKN200
     FM201400 14006KT P6SM BKN100=



000
FTUS41 KCTP 200235 AAA
TAFIPT
TAF AMD
KIPT 200235Z 2003/2024 VRB03KT P6SM BKN200
     FM201400 14006KT P6SM BKN100=



000
FTUS41 KCTP 200232 AAA
TAFAOO
TAF AMD
KAOO 200232Z 2003/2024 VRB03KT P6SM BKN200
     FM201400 22008KT P6SM BKN100=



000
FTUS41 KCTP 200232 AAA
TAFAOO
TAF AMD
KAOO 200232Z 2003/2024 VRB03KT P6SM BKN200
     FM201400 22008KT P6SM BKN100=



000
FTUS41 KCTP 200231 AAA
TAFBFD
TAF AMD
KBFD 200231Z 2003/2024 20003KT P6SM BKN150
     FM202000 20006KT P6SM VCSH OVC040=



000
FTUS41 KCTP 200231 AAA
TAFBFD
TAF AMD
KBFD 200231Z 2003/2024 20003KT P6SM BKN150
     FM202000 20006KT P6SM VCSH OVC040=



000
FTUS41 KCTP 200231 AAA
TAFJST
TAF AMD
KJST 200231Z 2003/2024 22006KT P6SM BKN150
     FM201300 22009KT P6SM BKN100=



000
FTUS41 KCTP 200231 AAA
TAFJST
TAF AMD
KJST 200231Z 2003/2024 22006KT P6SM BKN150
     FM201300 22009KT P6SM BKN100=



000
FTUS41 KCTP 192323
TAFIPT
TAF
KIPT 192323Z 2000/2024 VRB03KT P6SM BKN200
     FM201400 14006KT P6SM BKN100=



000
FTUS41 KCTP 192323
TAFMDT
TAF
KMDT 192323Z 2000/2024 VRB03KT P6SM BKN200
     FM201600 19006KT P6SM BKN120=



000
FTUS41 KCTP 192323
TAFBFD
TAF
KBFD 192323Z 2000/2024 21004KT P6SM BKN150
     FM202000 20006KT P6SM VCSH OVC040=



000
FTUS41 KCTP 192323
TAFJST
TAF
KJST 192323Z 2000/2024 24006KT P6SM BKN150
     FM201300 22009KT P6SM BKN100=



000
FTUS41 KCTP 192323
TAFIPT
TAF
KIPT 192323Z 2000/2024 VRB03KT P6SM BKN200
     FM201400 14006KT P6SM BKN100=



000
FTUS41 KCTP 192323
TAFUNV
TAF
KUNV 192323Z 2000/2024 28006KT P6SM SCT250
     FM200100 VRB03KT P6SM BKN200
     FM201400 22008KT P6SM BKN100=



000
FTUS41 KCTP 192323
TAFAOO
TAF
KAOO 192323Z 2000/2024 VRB03KT P6SM BKN200
     FM201400 22008KT P6SM BKN100=



000
FTUS41 KCTP 192323
TAFMDT
TAF
KMDT 192323Z 2000/2024 VRB03KT P6SM BKN200
     FM201600 19006KT P6SM BKN120=



000
FTUS41 KCTP 192323
TAFJST
TAF
KJST 192323Z 2000/2024 24006KT P6SM BKN150
     FM201300 22009KT P6SM BKN100=



000
FTUS41 KCTP 192323
TAFBFD
TAF
KBFD 192323Z 2000/2024 21004KT P6SM BKN150
     FM202000 20006KT P6SM VCSH OVC040=



000
FTUS41 KCTP 192323
TAFUNV
TAF
KUNV 192323Z 2000/2024 28006KT P6SM SCT250
     FM200100 VRB03KT P6SM BKN200
     FM201400 22008KT P6SM BKN100=



000
FTUS41 KCTP 192323
TAFAOO
TAF
KAOO 192323Z 2000/2024 VRB03KT P6SM BKN200
     FM201400 22008KT P6SM BKN100=



000
FTUS41 KCTP 192323
TAFBFD
TAF
KBFD 192323Z 2000/2024 21004KT P6SM BKN150
     FM202000 20006KT P6SM VCSH OVC040=



000
FTUS41 KCTP 192323
TAFUNV
TAF
KUNV 192323Z 2000/2024 28006KT P6SM SCT250
     FM200100 VRB03KT P6SM BKN200
     FM201400 22008KT P6SM BKN100=



000
FTUS41 KCTP 192323
TAFJST
TAF
KJST 192323Z 2000/2024 24006KT P6SM BKN150
     FM201300 22009KT P6SM BKN100=



000
FTUS41 KCTP 192323
TAFIPT
TAF
KIPT 192323Z 2000/2024 VRB03KT P6SM BKN200
     FM201400 14006KT P6SM BKN100=



000
FTUS41 KCTP 192323
TAFAOO
TAF
KAOO 192323Z 2000/2024 VRB03KT P6SM BKN200
     FM201400 22008KT P6SM BKN100=



000
FTUS41 KCTP 192323
TAFMDT
TAF
KMDT 192323Z 2000/2024 VRB03KT P6SM BKN200
     FM201600 19006KT P6SM BKN120=



000
FTUS41 KCTP 192323
TAFIPT
TAF
KIPT 192323Z 2000/2024 VRB03KT P6SM BKN200
     FM201400 14006KT P6SM BKN100=



000
FTUS41 KCTP 192323
TAFMDT
TAF
KMDT 192323Z 2000/2024 VRB03KT P6SM BKN200
     FM201600 19006KT P6SM BKN120=



000
FTUS41 KCTP 192323
TAFJST
TAF
KJST 192323Z 2000/2024 24006KT P6SM BKN150
     FM201300 22009KT P6SM BKN100=



000
FTUS41 KCTP 192323
TAFBFD
TAF
KBFD 192323Z 2000/2024 21004KT P6SM BKN150
     FM202000 20006KT P6SM VCSH OVC040=



000
FTUS41 KCTP 192323
TAFUNV
TAF
KUNV 192323Z 2000/2024 28006KT P6SM SCT250
     FM200100 VRB03KT P6SM BKN200
     FM201400 22008KT P6SM BKN100=



000
FTUS41 KCTP 192323
TAFAOO
TAF
KAOO 192323Z 2000/2024 VRB03KT P6SM BKN200
     FM201400 22008KT P6SM BKN100=



000
FTUS41 KCTP 192128 AAA
TAFMDT
TAF AMD
KMDT 192128Z 1921/2018 31010KT P6SM FEW250
     FM200000 30005KT P6SM BKN200
     FM201600 19007KT P6SM SCT100=



000
FTUS41 KCTP 192128 AAA
TAFMDT
TAF AMD
KMDT 192128Z 1921/2018 31010KT P6SM FEW250
     FM200000 30005KT P6SM BKN200
     FM201600 19007KT P6SM SCT100=



000
FTUS41 KCTP 192126 AAA
TAFIPT
TAF AMD
KIPT 192126Z 1921/2018 29008KT P6SM SKC
     FM200000 29003KT P6SM SCT250
     FM201600 16007KT P6SM BKN100=



000
FTUS41 KCTP 192126 AAA
TAFIPT
TAF AMD
KIPT 192126Z 1921/2018 29008KT P6SM SKC
     FM200000 29003KT P6SM SCT250
     FM201600 16007KT P6SM BKN100=



000
FTUS41 KCTP 192124 AAA
TAFUNV
TAF AMD
KUNV 192124Z 1921/2018 30010KT P6SM SKC
     FM192300 28006KT P6SM SCT250
     FM201400 20008G15KT P6SM BKN100=



000
FTUS41 KCTP 192124 AAA
TAFUNV
TAF AMD
KUNV 192124Z 1921/2018 30010KT P6SM SKC
     FM192300 28006KT P6SM SCT250
     FM201400 20008G15KT P6SM BKN100=



000
FTUS41 KCTP 192116 AAA
TAFAOO
TAF AMD
KAOO 192116Z 1921/2018 30012KT P6SM SKC
     FM192230 29006KT P6SM SCT200
     FM201400 20008G15KT P6SM BKN100=



000
FTUS41 KCTP 192116 AAA
TAFAOO
TAF AMD
KAOO 192116Z 1921/2018 30012KT P6SM SKC
     FM192230 29006KT P6SM SCT200
     FM201400 20008G15KT P6SM BKN100=



000
FTUS41 KCTP 192114 AAA
TAFJST
TAF AMD
KJST 192114Z 1921/2018 28012G20KT P6SM FEW250
     FM192300 27007KT P6SM BKN200
     FM201300 21008G15KT P6SM BKN100=



000
FTUS41 KCTP 192114 AAA
TAFJST
TAF AMD
KJST 192114Z 1921/2018 28012G20KT P6SM FEW250
     FM192300 27007KT P6SM BKN200
     FM201300 21008G15KT P6SM BKN100=



000
FTUS41 KCTP 192110 AAA
TAFBFD
TAF AMD
KBFD 192110Z 1921/2018 28009G18KT P6SM SKC
     FM192230 28007KT P6SM BKN200
     FM201300 20008G15KT P6SM BKN100=



000
FTUS41 KCTP 192110 AAA
TAFBFD
TAF AMD
KBFD 192110Z 1921/2018 28009G18KT P6SM SKC
     FM192230 28007KT P6SM BKN200
     FM201300 20008G15KT P6SM BKN100=



000
FTUS41 KCTP 191732
TAFAOO
TAF
KAOO 191732Z 1918/2018 31012G22KT P6SM SCT035
     FM200000 30007KT P6SM SKC
     FM201400 20008G15KT P6SM BKN100=



000
FTUS41 KCTP 191732
TAFBFD
TAF
KBFD 191732Z 1918/2018 31010G20KT P6SM BKN030
     FM192000 30008G16KT P6SM SCT035
     FM192300 29007KT P6SM SCT025
     FM201300 20008G15KT P6SM BKN100=



000
FTUS41 KCTP 191732
TAFIPT
TAF
KIPT 191732Z 1918/2018 30012G22KT P6SM SCT040
     FM200100 29007KT P6SM SKC
     FM201600 16007KT P6SM BKN100=



000
FTUS41 KCTP 191732
TAFJST
TAF
KJST 191732Z 1918/2018 30015G25KT P6SM SCT030
     FM192000 29010G20KT P6SM SCT035
     FM192300 28007KT P6SM SKC
     FM201300 21008G15KT P6SM BKN100=



000
FTUS41 KCTP 191732
TAFMDT
TAF
KMDT 191732Z 1918/2018 32012G24KT P6SM SCT040
     FM200100 31007KT P6SM SKC
     FM201600 19007KT P6SM SCT100=



000
FTUS41 KCTP 191732
TAFUNV
TAF
KUNV 191732Z 1918/2018 31010G20KT P6SM BKN035
     FM200000 30007KT P6SM SKC
     FM201400 20008G15KT P6SM BKN100=



000
FTUS41 KCTP 191732
TAFJST
TAF
KJST 191732Z 1918/2018 30015G25KT P6SM SCT030
     FM192000 29010G20KT P6SM SCT035
     FM192300 28007KT P6SM SKC
     FM201300 21008G15KT P6SM BKN100=



000
FTUS41 KCTP 191732
TAFIPT
TAF
KIPT 191732Z 1918/2018 30012G22KT P6SM SCT040
     FM200100 29007KT P6SM SKC
     FM201600 16007KT P6SM BKN100=



000
FTUS41 KCTP 191732
TAFMDT
TAF
KMDT 191732Z 1918/2018 32012G24KT P6SM SCT040
     FM200100 31007KT P6SM SKC
     FM201600 19007KT P6SM SCT100=



000
FTUS41 KCTP 191732
TAFBFD
TAF
KBFD 191732Z 1918/2018 31010G20KT P6SM BKN030
     FM192000 30008G16KT P6SM SCT035
     FM192300 29007KT P6SM SCT025
     FM201300 20008G15KT P6SM BKN100=



000
FTUS41 KCTP 191732
TAFAOO
TAF
KAOO 191732Z 1918/2018 31012G22KT P6SM SCT035
     FM200000 30007KT P6SM SKC
     FM201400 20008G15KT P6SM BKN100=



000
FTUS41 KCTP 191732
TAFUNV
TAF
KUNV 191732Z 1918/2018 31010G20KT P6SM BKN035
     FM200000 30007KT P6SM SKC
     FM201400 20008G15KT P6SM BKN100=



000
FTUS41 KCTP 191527 AAA
TAFJST
TAF AMD
KJST 191527Z 1915/2012 33014G24KT P6SM SCT015 BKN025
     FM191900 32010G20KT P6SM SCT035
     FM200000 27006KT P6SM SKC=



000
FTUS41 KCTP 191527 AAA
TAFBFD
TAF AMD
KBFD 191527Z 1915/2012 31010G20KT P6SM SCT015 BKN025
     FM191900 30008G16KT P6SM SCT035
     FM200000 29005KT P6SM SCT025=



000
FTUS41 KCTP 191527 AAA
TAFMDT
TAF AMD
KMDT 191527Z 1915/2012 32012G24KT P6SM BKN040
     FM192300 31004KT P6SM SKC=



000
FTUS41 KCTP 191527 AAA
TAFIPT
TAF AMD
KIPT 191527Z 1915/2012 29012G22KT P6SM BKN035
     FM192300 30003KT P6SM SKC=



000
FTUS41 KCTP 191527 AAA
TAFUNV
TAF AMD
KUNV 191527Z 1915/2012 31010G20KT P6SM BKN035
     FM192300 28004KT P6SM SKC=



000
FTUS41 KCTP 191527 AAA
TAFUNV
TAF AMD
KUNV 191527Z 1915/2012 31010G20KT P6SM BKN035
     FM192300 28004KT P6SM SKC=



000
FTUS41 KCTP 191527 AAC
TAFAOO
TAF AMD
KAOO 191527Z 1915/2012 32012G22KT P6SM BKN035
     FM200000 28004KT P6SM SKC=



000
FTUS41 KCTP 191527 AAA
TAFIPT
TAF AMD
KIPT 191527Z 1915/2012 29012G22KT P6SM BKN035
     FM192300 30003KT P6SM SKC=



000
FTUS41 KCTP 191527 AAA
TAFJST
TAF AMD
KJST 191527Z 1915/2012 33014G24KT P6SM SCT015 BKN025
     FM191900 32010G20KT P6SM SCT035
     FM200000 27006KT P6SM SKC=



000
FTUS41 KCTP 191527 AAC
TAFAOO
TAF AMD
KAOO 191527Z 1915/2012 32012G22KT P6SM BKN035
     FM200000 28004KT P6SM SKC=



000
FTUS41 KCTP 191527 AAA
TAFMDT
TAF AMD
KMDT 191527Z 1915/2012 32012G24KT P6SM BKN040
     FM192300 31004KT P6SM SKC=



000
FTUS41 KCTP 191527 AAA
TAFBFD
TAF AMD
KBFD 191527Z 1915/2012 31010G20KT P6SM SCT015 BKN025
     FM191900 30008G16KT P6SM SCT035
     FM200000 29005KT P6SM SCT025=



000
FTUS41 KCTP 191419 AAB
TAFAOO
TAF AMD
KAOO 191419Z 1914/2012 32012G22KT P6SM OVC035
     FM191600 31011G24KT P6SM BKN040
     FM200000 28004KT P6SM SKC=



000
FTUS41 KCTP 191419 AAB
TAFAOO
TAF AMD
KAOO 191419Z 1914/2012 32012G22KT P6SM OVC035
     FM191600 31011G24KT P6SM BKN040
     FM200000 28004KT P6SM SKC=



000
FTUS41 KCTP 191347 AAA
TAFAOO
TAF AMD
KAOO 191347Z 1914/2012 32012G22KT P6SM OVC030
     FM191600 31011G24KT P6SM BKN040
     FM200000 28004KT P6SM SKC=



000
FTUS41 KCTP 191120
TAFAOO
TAF
KAOO 191120Z 1912/2012 32012KT P6SM VCSH OVC035
     FM191400 31011G24KT P6SM BKN040
     FM200000 28004KT P6SM SKC=



000
FTUS41 KCTP 191120
TAFBFD
TAF
KBFD 191120Z 1912/2012 33007KT P6SM FEW017 FEW023 OVC030
     FM191300 31011G18KT P6SM BKN030 OVC050
     FM191900 29010KT P6SM SCT050
     FM200000 29005KT P6SM SCT025=



000
FTUS41 KCTP 191120
TAFJST
TAF
KJST 191120Z 1912/2012 33014G22KT P6SM OVC025
     FM192000 29010G20KT P6SM SCT015 BKN040
     FM200000 27006KT P6SM SKC=



000
FTUS41 KCTP 191120
TAFIPT
TAF
KIPT 191120Z 1912/2012 32009KT P6SM BKN035 OVC050
     FM191400 29010G22KT P6SM SCT040
     FM192300 30003KT P6SM SKC=



000
FTUS41 KCTP 191120
TAFMDT
TAF
KMDT 191120Z 1912/2012 32013KT P6SM BKN040
     FM191400 31015G25KT P6SM SCT070
     FM192300 31004KT P6SM SKC=



000
FTUS41 KCTP 191120
TAFAOO
TAF
KAOO 191120Z 1912/2012 32012KT P6SM VCSH OVC035
     FM191400 31011G24KT P6SM BKN040
     FM200000 28004KT P6SM SKC=



000
FTUS41 KCTP 191120
TAFBFD
TAF
KBFD 191120Z 1912/2012 33007KT P6SM FEW017 FEW023 OVC030
     FM191300 31011G18KT P6SM BKN030 OVC050
     FM191900 29010KT P6SM SCT050
     FM200000 29005KT P6SM SCT025=



000
FTUS41 KCTP 191120
TAFJST
TAF
KJST 191120Z 1912/2012 33014G22KT P6SM OVC025
     FM192000 29010G20KT P6SM SCT015 BKN040
     FM200000 27006KT P6SM SKC=



000
FTUS41 KCTP 191120
TAFUNV
TAF
KUNV 191120Z 1912/2012 31007KT P6SM VCSH SCT022 BKN028
     FM191400 31012G24KT P6SM BKN040
     FM192000 29010KT P6SM SCT040
     FM192300 28004KT P6SM SKC=



000
FTUS41 KCTP 190927 AAA
TAFAOO
TAF AMD
KAOO 190927Z 1909/2006 32014KT P6SM VCSH FEW021 FEW030 OVC040
     FM191400 31011G24KT P6SM BKN040
     FM200000 28004KT P6SM SKC=



000
FTUS41 KCTP 190927 AAC
TAFJST
TAF AMD
KJST 190927Z 1909/2006 31011G20KT P6SM FEW008 BKN012 OVC028
     FM191200 31013G25KT P6SM BKN040
     FM200000 27006KT P6SM SKC=



000
FTUS41 KCTP 190927 AAA
TAFMDT
TAF AMD
KMDT 190927Z 1909/2006 32012KT P6SM BKN040
     FM191400 31015G25KT P6SM SCT070
     FM192300 31004KT P6SM SKC=



000
FTUS41 KCTP 190927 AAC
TAFJST
TAF AMD
KJST 190927Z 1909/2006 31011G20KT P6SM FEW008 BKN012 OVC028
     FM191200 31013G25KT P6SM BKN040
     FM200000 27006KT P6SM SKC=



000
FTUS41 KCTP 190927 AAA
TAFUNV
TAF AMD
KUNV 190927Z 1909/2006 27006KT P6SM VCSH SCT020 SCT025 OVC045
     FM191400 31012G24KT P6SM BKN040
     FM192000 29010KT P6SM SCT040
     FM192300 28004KT P6SM SKC=



000
FTUS41 KCTP 190927 AAA
TAFBFD
TAF AMD
KBFD 190927Z 1909/2006 33006KT P6SM FEW019 OVC024
     FM191200 31009KT P6SM OVC025
     FM191300 31011G18KT P6SM BKN025 OVC050
     FM191900 29010KT P6SM SCT050
     FM200000 29005KT P6SM SCT025=



000
FTUS41 KCTP 190927 AAA
TAFMDT
TAF AMD
KMDT 190927Z 1909/2006 32012KT P6SM BKN040
     FM191400 31015G25KT P6SM SCT070
     FM192300 31004KT P6SM SKC=



000
FTUS41 KCTP 190927 AAA
TAFIPT
TAF AMD
KIPT 190927Z 1909/2006 29008KT P6SM SCT035 BKN045 OVC080
     FM191400 29010G22KT P6SM SCT040
     FM192300 30003KT P6SM SKC=



000
FTUS41 KCTP 190927 AAA
TAFUNV
TAF AMD
KUNV 190927Z 1909/2006 27006KT P6SM VCSH SCT020 SCT025 OVC045
     FM191400 31012G24KT P6SM BKN040
     FM192000 29010KT P6SM SCT040
     FM192300 28004KT P6SM SKC=



000
FTUS41 KCTP 190927 AAA
TAFIPT
TAF AMD
KIPT 190927Z 1909/2006 29008KT P6SM SCT035 BKN045 OVC080
     FM191400 29010G22KT P6SM SCT040
     FM192300 30003KT P6SM SKC=



000
FTUS41 KCTP 190927 AAA
TAFAOO
TAF AMD
KAOO 190927Z 1909/2006 32014KT P6SM VCSH FEW021 FEW030 OVC040
     FM191400 31011G24KT P6SM BKN040
     FM200000 28004KT P6SM SKC=



000
FTUS41 KCTP 190927 AAA
TAFBFD
TAF AMD
KBFD 190927Z 1909/2006 33006KT P6SM FEW019 OVC024
     FM191200 31009KT P6SM OVC025
     FM191300 31011G18KT P6SM BKN025 OVC050
     FM191900 29010KT P6SM SCT050
     FM200000 29005KT P6SM SCT025=



000
FTUS41 KCTP 190811 AAB
TAFJST
TAF AMD
KJST 190811Z 1908/2006 30009G18KT P6SM OVC006
     FM191400 31013G25KT P6SM BKN040
     FM200000 27006KT P6SM SKC=



000
FTUS41 KCTP 190811 AAB
TAFJST
TAF AMD
KJST 190811Z 1908/2006 30009G18KT P6SM OVC006
     FM191400 31013G25KT P6SM BKN040
     FM200000 27006KT P6SM SKC=



000
FTUS41 KCTP 190703 AAA
TAFJST
TAF AMD
KJST 190703Z 1907/2006 31016KT P6SM -RA BKN016 OVC021
     FM191400 31013G25KT P6SM BKN040
     FM200000 27006KT P6SM SKC=



000
FTUS41 KCTP 190703 AAA
TAFJST
TAF AMD
KJST 190703Z 1907/2006 31016KT P6SM -RA BKN016 OVC021
     FM191400 31013G25KT P6SM BKN040
     FM200000 27006KT P6SM SKC=



000
FTUS41 KCTP 190541
TAFUNV
TAF
KUNV 190541Z 1906/2006 35006KT P6SM VCSH OVC025
     FM191400 31012G24KT P6SM BKN040
     FM192000 29010KT P6SM SCT040
     FM192300 28004KT P6SM SKC=



000
FTUS41 KCTP 190541
TAFJST
TAF
KJST 190541Z 1906/2006 32015G25KT P6SM VCSH BKN013 OVC020
     FM190700 30014G28KT 6SM -SHRASN BR OVC004
     FM191400 31013G25KT P6SM BKN040
     FM200000 27006KT P6SM SKC=



000
FTUS41 KCTP 190541
TAFBFD
TAF
KBFD 190541Z 1906/2006 32011KT P6SM VCSH BKN010 OVC015
     FM190700 30014G28KT 6SM -SHRASN BR OVC009
     FM191200 31009KT P6SM OVC025
     FM191300 31011G18KT P6SM BKN025 OVC050
     FM191900 29010KT P6SM SCT050
     FM200000 29005KT P6SM SCT025=



000
FTUS41 KCTP 190541
TAFAOO
TAF
KAOO 190541Z 1906/2006 33009G24KT P6SM VCSH BKN022 BKN027 OVC030
     FM191400 31011G24KT P6SM BKN040
     FM200000 28004KT P6SM SKC=



000
FTUS41 KCTP 190541
TAFIPT
TAF
KIPT 190541Z 1906/2006 29009KT P6SM VCSH OVC035
     FM190800 28007KT P6SM OVC025
     FM191400 29010G22KT P6SM SCT040
     FM192300 30003KT P6SM SKC=



000
FTUS41 KCTP 190541
TAFMDT
TAF
KMDT 190541Z 1906/2006 31014KT P6SM OVC035
     FM191400 31015G25KT P6SM SCT070
     FM192300 31004KT P6SM SKC=



000
FTUS41 KCTP 190541
TAFUNV
TAF
KUNV 190541Z 1906/2006 35006KT P6SM VCSH OVC025
     FM191400 31012G24KT P6SM BKN040
     FM192000 29010KT P6SM SCT040
     FM192300 28004KT P6SM SKC=



000
FTUS41 KCTP 190541
TAFJST
TAF
KJST 190541Z 1906/2006 32015G25KT P6SM VCSH BKN013 OVC020
     FM190700 30014G28KT 6SM -SHRASN BR OVC004
     FM191400 31013G25KT P6SM BKN040
     FM200000 27006KT P6SM SKC=



000
FTUS41 KCTP 190541
TAFBFD
TAF
KBFD 190541Z 1906/2006 32011KT P6SM VCSH BKN010 OVC015
     FM190700 30014G28KT 6SM -SHRASN BR OVC009
     FM191200 31009KT P6SM OVC025
     FM191300 31011G18KT P6SM BKN025 OVC050
     FM191900 29010KT P6SM SCT050
     FM200000 29005KT P6SM SCT025=



000
FTUS41 KCTP 190541
TAFMDT
TAF
KMDT 190541Z 1906/2006 31014KT P6SM OVC035
     FM191400 31015G25KT P6SM SCT070
     FM192300 31004KT P6SM SKC=



000
FTUS41 KCTP 190541
TAFIPT
TAF
KIPT 190541Z 1906/2006 29009KT P6SM VCSH OVC035
     FM190800 28007KT P6SM OVC025
     FM191400 29010G22KT P6SM SCT040
     FM192300 30003KT P6SM SKC=



000
FTUS41 KCTP 190541
TAFAOO
TAF
KAOO 190541Z 1906/2006 33009G24KT P6SM VCSH BKN022 BKN027 OVC030
     FM191400 31011G24KT P6SM BKN040
     FM200000 28004KT P6SM SKC=



000
FTUS41 KCTP 190344 AAA
TAFUNV
TAF AMD
KUNV 190344Z 1904/1924 32008G18KT P6SM VCSH BKN025 OVC035
     FM191400 31012G24KT P6SM BKN040=



000
FTUS41 KCTP 190344 AAA
TAFMDT
TAF AMD
KMDT 190344Z 1904/1924 28007KT P6SM SCT045 BKN090
     FM191400 31015G25KT P6SM SCT070=



000
FTUS41 KCTP 190344 AAA
TAFBFD
TAF AMD
KBFD 190344Z 1904/1924 33012KT P6SM VCSH OVC012
      TEMPO 1904/1906 3SM -SHRA BR OVC009
     FM190600 31009KT P6SM -SHSN OVC009
     FM191300 31011G18KT P6SM BKN050=



000
FTUS41 KCTP 190344 AAA
TAFAOO
TAF AMD
KAOO 190344Z 1904/1924 31010G22KT P6SM VCSH SCT015 OVC025
     FM190600 32009G18KT P6SM VCSH BKN015 OVC025
     FM191400 31011G24KT P6SM BKN040=



000
FTUS41 KCTP 190344 AAA
TAFJST
TAF AMD
KJST 190344Z 1904/1924 32012G23KT P6SM VCSH BKN005 OVC009
      TEMPO 1904/1906 3SM -SHRA BR OVC004
     FM190600 30014G28KT 6SM -SHRASN BR OVC004
     FM191400 31013G25KT P6SM BKN040=



000
FTUS41 KCTP 190344 AAA
TAFIPT
TAF AMD
KIPT 190344Z 1904/1924 31008KT P6SM VCSH SCT040 OVC060
     FM190800 28007KT P6SM OVC025
     FM191400 29010G22KT P6SM SCT040=



000
FTUS41 KCTP 190344 AAA
TAFJST
TAF AMD
KJST 190344Z 1904/1924 32012G23KT P6SM VCSH BKN005 OVC009
      TEMPO 1904/1906 3SM -SHRA BR OVC004
     FM190600 30014G28KT 6SM -SHRASN BR OVC004
     FM191400 31013G25KT P6SM BKN040=



000
FTUS41 KCTP 190344 AAA
TAFJST
TAF AMD
KJST 190344Z 1904/1924 32012G23KT P6SM VCSH BKN005 OVC009
      TEMPO 1904/1906 3SM -SHRA BR OVC004
     FM190600 30014G28KT 6SM -SHRASN BR OVC004
     FM191400 31013G25KT P6SM BKN040=



000
FTUS41 KCTP 190344 AAA
TAFJST
TAF AMD
KJST 190344Z 1904/1924 32012G23KT P6SM VCSH BKN005 OVC009
      TEMPO 1904/1906 3SM -SHRA BR OVC004
     FM190600 30014G28KT 6SM -SHRASN BR OVC004
     FM191400 31013G25KT P6SM BKN040=



000
FTUS41 KCTP 190344 AAA
TAFMDT
TAF AMD
KMDT 190344Z 1904/1924 28007KT P6SM SCT045 BKN090
     FM191400 31015G25KT P6SM SCT070=



000
FTUS41 KCTP 190344 AAA
TAFAOO
TAF AMD
KAOO 190344Z 1904/1924 31010G22KT P6SM VCSH SCT015 OVC025
     FM190600 32009G18KT P6SM VCSH BKN015 OVC025
     FM191400 31011G24KT P6SM BKN040=



000
FTUS41 KCTP 190344 AAA
TAFIPT
TAF AMD
KIPT 190344Z 1904/1924 31008KT P6SM VCSH SCT040 OVC060
     FM190800 28007KT P6SM OVC025
     FM191400 29010G22KT P6SM SCT040=



000
FTUS41 KCTP 190344 AAA
TAFBFD
TAF AMD
KBFD 190344Z 1904/1924 33012KT P6SM VCSH OVC012
      TEMPO 1904/1906 3SM -SHRA BR OVC009
     FM190600 31009KT P6SM -SHSN OVC009
     FM191300 31011G18KT P6SM BKN050=



000
FTUS41 KCTP 190344 AAA
TAFAOO
TAF AMD
KAOO 190344Z 1904/1924 31010G22KT P6SM VCSH SCT015 OVC025
     FM190600 32009G18KT P6SM VCSH BKN015 OVC025
     FM191400 31011G24KT P6SM BKN040=



000
FTUS41 KCTP 190344 AAA
TAFUNV
TAF AMD
KUNV 190344Z 1904/1924 32008G18KT P6SM VCSH BKN025 OVC035
     FM191400 31012G24KT P6SM BKN040=



000
FTUS41 KCTP 190344 AAA
TAFUNV
TAF AMD
KUNV 190344Z 1904/1924 32008G18KT P6SM VCSH BKN025 OVC035
     FM191400 31012G24KT P6SM BKN040=



000
FTUS41 KCTP 190344 AAA
TAFMDT
TAF AMD
KMDT 190344Z 1904/1924 28007KT P6SM SCT045 BKN090
     FM191400 31015G25KT P6SM SCT070=



000
FTUS41 KCTP 190344 AAA
TAFBFD
TAF AMD
KBFD 190344Z 1904/1924 33012KT P6SM VCSH OVC012
      TEMPO 1904/1906 3SM -SHRA BR OVC009
     FM190600 31009KT P6SM -SHSN OVC009
     FM191300 31011G18KT P6SM BKN050=



000
FTUS41 KCTP 190344 AAA
TAFUNV
TAF AMD
KUNV 190344Z 1904/1924 32008G18KT P6SM VCSH BKN025 OVC035
     FM191400 31012G24KT P6SM BKN040=



000
FTUS41 KCTP 190344 AAA
TAFIPT
TAF AMD
KIPT 190344Z 1904/1924 31008KT P6SM VCSH SCT040 OVC060
     FM190800 28007KT P6SM OVC025
     FM191400 29010G22KT P6SM SCT040=



000
FTUS41 KCTP 190344 AAA
TAFBFD
TAF AMD
KBFD 190344Z 1904/1924 33012KT P6SM VCSH OVC012
      TEMPO 1904/1906 3SM -SHRA BR OVC009
     FM190600 31009KT P6SM -SHSN OVC009
     FM191300 31011G18KT P6SM BKN050=



000
FTUS41 KCTP 190344 AAA
TAFIPT
TAF AMD
KIPT 190344Z 1904/1924 31008KT P6SM VCSH SCT040 OVC060
     FM190800 28007KT P6SM OVC025
     FM191400 29010G22KT P6SM SCT040=



000
FTUS41 KCTP 190344 AAA
TAFAOO
TAF AMD
KAOO 190344Z 1904/1924 31010G22KT P6SM VCSH SCT015 OVC025
     FM190600 32009G18KT P6SM VCSH BKN015 OVC025
     FM191400 31011G24KT P6SM BKN040=



000
FTUS41 KCTP 190344 AAA
TAFMDT
TAF AMD
KMDT 190344Z 1904/1924 28007KT P6SM SCT045 BKN090
     FM191400 31015G25KT P6SM SCT070=



000
FTUS41 KCTP 182342
TAFJST
TAF
KJST 182342Z 1900/1924 28013G22KT P6SM VCSH SCT015 OVC025
     FM190300 30014G28KT 6SM -SHRASN BR OVC015
     FM191400 31013G25KT P6SM BKN040=



000
FTUS41 KCTP 182342
TAFBFD
TAF
KBFD 182342Z 1900/1924 31010G18KT P6SM VCSH OVC012
     FM190600 31009KT P6SM -SHSN BKN016 OVC025
     FM191300 31011G18KT P6SM BKN050=



000
FTUS41 KCTP 182342
TAFIPT
TAF
KIPT 182342Z 1900/1924 28008G18KT P6SM VCSH BKN040 OVC060
     FM190200 30011G19KT P6SM VCSH OVC025
     FM191400 29010G22KT P6SM SCT040=



000
FTUS41 KCTP 182342
TAFUNV
TAF
KUNV 182342Z 1900/1924 29010G18KT P6SM VCSH SCT035 OVC070
     FM190300 30011G24KT P6SM VCSH OVC035
     FM191400 31012G24KT P6SM BKN040=



000
FTUS41 KCTP 182342
TAFAOO
TAF
KAOO 182342Z 1900/1924 29008KT P6SM VCSH SCT025 BKN050
     FM190300 30012G26KT P6SM VCSH BKN015 OVC030
     FM191400 31011G24KT P6SM BKN040=



000
FTUS41 KCTP 182342
TAFMDT
TAF
KMDT 182342Z 1900/1924 29012G20KT P6SM VCSH BKN080 BKN250
     FM190400 30013KT P6SM BKN050
     FM191400 31015G25KT P6SM SCT070=



000
FTUS41 KCTP 182342
TAFUNV
TAF
KUNV 182342Z 1900/1924 29010G18KT P6SM VCSH SCT035 OVC070
     FM190300 30011G24KT P6SM VCSH OVC035
     FM191400 31012G24KT P6SM BKN040=



000
FTUS41 KCTP 182342
TAFJST
TAF
KJST 182342Z 1900/1924 28013G22KT P6SM VCSH SCT015 OVC025
     FM190300 30014G28KT 6SM -SHRASN BR OVC015
     FM191400 31013G25KT P6SM BKN040=



000
FTUS41 KCTP 182342
TAFMDT
TAF
KMDT 182342Z 1900/1924 29012G20KT P6SM VCSH BKN080 BKN250
     FM190400 30013KT P6SM BKN050
     FM191400 31015G25KT P6SM SCT070=



000
FTUS41 KCTP 182342
TAFIPT
TAF
KIPT 182342Z 1900/1924 28008G18KT P6SM VCSH BKN040 OVC060
     FM190200 30011G19KT P6SM VCSH OVC025
     FM191400 29010G22KT P6SM SCT040=



000
FTUS41 KCTP 182342
TAFAOO
TAF
KAOO 182342Z 1900/1924 29008KT P6SM VCSH SCT025 BKN050
     FM190300 30012G26KT P6SM VCSH BKN015 OVC030
     FM191400 31011G24KT P6SM BKN040=



000
FTUS41 KCTP 182342
TAFBFD
TAF
KBFD 182342Z 1900/1924 31010G18KT P6SM VCSH OVC012
     FM190600 31009KT P6SM -SHSN BKN016 OVC025
     FM191300 31011G18KT P6SM BKN050=



000
FTUS41 KCTP 182206 AAA
TAFMDT
TAF AMD
KMDT 182206Z 1822/1918 27015G25KT P6SM VCSH SCT060 BKN250
     FM190000 30013KT P6SM BKN050=



000
FTUS41 KCTP 182206 AAC
TAFUNV
TAF AMD
KUNV 182206Z 1822/1918 29009G20KT P6SM VCSH BKN035 OVC070
     FM190300 30013G24KT P6SM VCSH OVC035=



000
FTUS41 KCTP 182206 AAA
TAFIPT
TAF AMD
KIPT 182206Z 1822/1918 29009G20KT P6SM VCSH BKN040 OVC060
     FM190200 30011G19KT P6SM VCSH OVC027=



000
FTUS41 KCTP 182206 AAA
TAFMDT
TAF AMD
KMDT 182206Z 1822/1918 27015G25KT P6SM VCSH SCT060 BKN250
     FM190000 30013KT P6SM BKN050=



000
FTUS41 KCTP 182206 AAA
TAFIPT
TAF AMD
KIPT 182206Z 1822/1918 29009G20KT P6SM VCSH BKN040 OVC060
     FM190200 30011G19KT P6SM VCSH OVC027=



000
FTUS41 KCTP 182206 AAB
TAFAOO
TAF AMD
KAOO 182206Z 1822/1918 29012G20KT P6SM VCSH SCT025 OVC035
     FM190300 30012G26KT P6SM VCSH BKN018 OVC030=



000
FTUS41 KCTP 182206 AAB
TAFJST
TAF AMD
KJST 182206Z 1822/1918 28013G22KT P6SM VCSH BKN025 OVC050
     FM190600 30014G28KT 6SM -SHRASN BR OVC015=



000
FTUS41 KCTP 182206 AAC
TAFBFD
TAF AMD
KBFD 182206Z 1822/1918 32012G18KT P6SM -SHRA BKN025 OVC035
     FM190000 30010G16KT P6SM VCSH OVC015
     FM190600 31009KT P6SM -SHSN BKN016 OVC025=



000
FTUS41 KCTP 182206 AAC
TAFUNV
TAF AMD
KUNV 182206Z 1822/1918 29009G20KT P6SM VCSH BKN035 OVC070
     FM190300 30013G24KT P6SM VCSH OVC035=



000
FTUS41 KCTP 182206 AAB
TAFAOO
TAF AMD
KAOO 182206Z 1822/1918 29012G20KT P6SM VCSH SCT025 OVC035
     FM190300 30012G26KT P6SM VCSH BKN018 OVC030=



    US Dept of Commerce
    National Oceanic and Atmospheric Administration
    National Weather Service
    1325 East West Highway
    Silver Spring, MD 20910
    Page Author: NWS Internet Services Team
Disclaimer
Information Quality
Credits
Glossary
Privacy Policy
Freedom of Information Act (FOIA)
About Us
Career Opportunities